C2010 PADQ-KACV
Flight info
| Callsign | C2010 |
|---|---|
| Flight time | 4h 25m |
| Altitude | 27000 |
| Route | JUTGO HEMLO SHUKS SAWGU VOLEW |
| Aircraft | C30J/M-SGHIRTUY/L |
Departure
| Time | 2026-04-27 14:49 |
|---|---|
| Airport | Kodiak Airport (PADQ) |
Arrival
| Time | 2026-04-27 19:14 |
|---|---|
| Airport | California Redwood Coast-Humboldt County Airport (KACV) |
| Time | Latitude | Longitude | Altitude | Speed | Heading |
|---|---|---|---|---|---|
| 2026-04-27 14:28 | 57.75340 | -152.51286 | 72 ft | 0 kts | 33° |
| 2026-04-27 14:40 | 57.75341 | -152.51285 | 67 ft | 1 kts | 33° |
| 2026-04-27 14:41 | 57.75359 | -152.51263 | 66 ft | 3 kts | 33° |
| 2026-04-27 14:41 | 57.75380 | -152.51236 | 67 ft | 4 kts | 34° |
| 2026-04-27 14:41 | 57.75408 | -152.51201 | 67 ft | 0 kts | 32° |
| 2026-04-27 14:42 | 57.75409 | -152.51183 | 67 ft | 1 kts | 133° |
| 2026-04-27 14:42 | 57.75401 | -152.51188 | 62 ft | 0 kts | 216° |
| 2026-04-27 14:43 | 57.75401 | -152.51187 | 65 ft | 0 kts | 217° |
| 2026-04-27 14:44 | 57.75389 | -152.51202 | 64 ft | 0 kts | 210° |
| 2026-04-27 14:44 | 57.75347 | -152.51242 | 69 ft | 14 kts | 205° |
| 2026-04-27 14:44 | 57.75235 | -152.51196 | 67 ft | 20 kts | 146° |
| 2026-04-27 14:45 | 57.75125 | -152.51063 | 69 ft | 8 kts | 174° |
| 2026-04-27 14:45 | 57.75108 | -152.51135 | 71 ft | 10 kts | 272° |
| 2026-04-27 14:45 | 57.75111 | -152.51310 | 78 ft | 17 kts | 270° |
| 2026-04-27 14:45 | 57.75112 | -152.51394 | 79 ft | 2 kts | 273° |
| 2026-04-27 14:46 | 57.75121 | -152.51468 | 78 ft | 5 kts | 295° |
| 2026-04-27 14:46 | 57.75122 | -152.51473 | 78 ft | 0 kts | 299° |
| 2026-04-27 14:47 | 57.75125 | -152.51483 | 68 ft | 7 kts | 304° |
| 2026-04-27 14:47 | 57.75194 | -152.51503 | 77 ft | 9 kts | 33° |
| 2026-04-27 14:47 | 57.75205 | -152.51459 | 74 ft | 3 kts | 97° |
| 2026-04-27 14:48 | 57.75205 | -152.51450 | 75 ft | 0 kts | 91° |
| 2026-04-27 14:48 | 57.75204 | -152.51421 | 77 ft | 25 kts | 92° |
| 2026-04-27 14:48 | 57.75188 | -152.50393 | 61 ft | 127 kts | 92° |
| 2026-04-27 14:49 | 57.75161 | -152.48366 | 209 ft | 175 kts | 98° |
| 2026-04-27 14:49 | 57.75052 | -152.46191 | 546 ft | 167 kts | 103° |
| 2026-04-27 14:49 | 57.74815 | -152.43981 | 1079 ft | 174 kts | 107° |
| 2026-04-27 14:49 | 57.74486 | -152.41890 | 1236 ft | 168 kts | 110° |
| 2026-04-27 14:50 | 57.74218 | -152.39739 | 1672 ft | 170 kts | 103° |
| 2026-04-27 14:50 | 57.74132 | -152.37469 | 2101 ft | 176 kts | 100° |
| 2026-04-27 14:50 | 57.74033 | -152.35094 | 2543 ft | 195 kts | 102° |
| 2026-04-27 14:50 | 57.73906 | -152.32521 | 2957 ft | 200 kts | 102° |
| 2026-04-27 14:51 | 57.73783 | -152.29902 | 3335 ft | 204 kts | 103° |
| 2026-04-27 14:51 | 57.73661 | -152.27243 | 3755 ft | 206 kts | 103° |
| 2026-04-27 14:51 | 57.73540 | -152.24565 | 4173 ft | 207 kts | 103° |
| 2026-04-27 14:51 | 57.73458 | -152.22744 | 4471 ft | 208 kts | 103° |
| 2026-04-27 14:52 | 57.73288 | -152.19062 | 5040 ft | 220 kts | 103° |
| 2026-04-27 14:52 | 57.73159 | -152.16197 | 5464 ft | 222 kts | 103° |
| 2026-04-27 14:52 | 57.73030 | -152.13301 | 5893 ft | 223 kts | 103° |
| 2026-04-27 14:52 | 57.72899 | -152.10395 | 6312 ft | 225 kts | 103° |
| 2026-04-27 14:53 | 57.72766 | -152.07463 | 6708 ft | 227 kts | 103° |
| 2026-04-27 14:53 | 57.72487 | -152.04588 | 7128 ft | 222 kts | 116° |
| 2026-04-27 14:53 | 57.71850 | -152.02004 | 7532 ft | 217 kts | 127° |
| 2026-04-27 14:53 | 57.71081 | -151.99575 | 7952 ft | 218 kts | 128° |
| 2026-04-27 14:54 | 57.70293 | -151.97148 | 8377 ft | 220 kts | 128° |
| 2026-04-27 14:54 | 57.69496 | -151.94693 | 8808 ft | 221 kts | 128° |
| 2026-04-27 14:54 | 57.68694 | -151.92229 | 9229 ft | 224 kts | 128° |
| 2026-04-27 14:54 | 57.67878 | -151.89726 | 9676 ft | 225 kts | 128° |
| 2026-04-27 14:55 | 57.67060 | -151.87216 | 10067 ft | 226 kts | 128° |
| 2026-04-27 14:55 | 57.66237 | -151.84694 | 10479 ft | 228 kts | 128° |
| 2026-04-27 14:55 | 57.65410 | -151.82165 | 10886 ft | 229 kts | 128° |
| 2026-04-27 14:55 | 57.64590 | -151.79657 | 11278 ft | 229 kts | 128° |
| 2026-04-27 14:56 | 57.63755 | -151.77110 | 11704 ft | 231 kts | 128° |
| 2026-04-27 14:56 | 57.62901 | -151.74511 | 12106 ft | 233 kts | 127° |
| 2026-04-27 14:56 | 57.62059 | -151.71952 | 12546 ft | 236 kts | 127° |
| 2026-04-27 14:56 | 57.61202 | -151.69341 | 12964 ft | 236 kts | 127° |
| 2026-04-27 14:57 | 57.60340 | -151.66719 | 13413 ft | 238 kts | 127° |
| 2026-04-27 14:57 | 57.59473 | -151.64086 | 13835 ft | 239 kts | 127° |
| 2026-04-27 14:57 | 57.58596 | -151.61431 | 14230 ft | 241 kts | 128° |
| 2026-04-27 14:57 | 57.57713 | -151.58759 | 14632 ft | 243 kts | 128° |
| 2026-04-27 14:58 | 57.56823 | -151.56067 | 15034 ft | 245 kts | 128° |
| 2026-04-27 14:58 | 57.55935 | -151.53380 | 15440 ft | 237 kts | 128° |
| 2026-04-27 14:58 | 57.55080 | -151.50792 | 15838 ft | 235 kts | 129° |
| 2026-04-27 14:58 | 57.54211 | -151.48184 | 16263 ft | 238 kts | 129° |
| 2026-04-27 14:59 | 57.53336 | -151.45555 | 16706 ft | 240 kts | 129° |
| 2026-04-27 14:59 | 57.52454 | -151.42906 | 17142 ft | 242 kts | 130° |
| 2026-04-27 14:59 | 57.51565 | -151.40239 | 17584 ft | 244 kts | 130° |
| 2026-04-27 14:59 | 57.50667 | -151.37546 | 18033 ft | 246 kts | 130° |
| 2026-04-27 15:00 | 57.49764 | -151.34840 | 18422 ft | 247 kts | 130° |
| 2026-04-27 15:00 | 57.48857 | -151.32120 | 18812 ft | 248 kts | 130° |
| 2026-04-27 15:00 | 57.47951 | -151.29409 | 19198 ft | 238 kts | 130° |
| 2026-04-27 15:00 | 57.47135 | -151.26937 | 19569 ft | 220 kts | 131° |
| 2026-04-27 15:01 | 57.46312 | -151.24503 | 19951 ft | 226 kts | 130° |
| 2026-04-27 15:01 | 57.45466 | -151.22003 | 20366 ft | 230 kts | 130° |
| 2026-04-27 15:01 | 57.44620 | -151.19489 | 20787 ft | 230 kts | 130° |
| 2026-04-27 15:01 | 57.43772 | -151.16971 | 21208 ft | 231 kts | 130° |
| 2026-04-27 15:02 | 57.42921 | -151.14446 | 21638 ft | 231 kts | 130° |
| 2026-04-27 15:02 | 57.42082 | -151.11958 | 22066 ft | 229 kts | 130° |
| 2026-04-27 15:02 | 57.41231 | -151.09438 | 22498 ft | 231 kts | 130° |
| 2026-04-27 15:02 | 57.40374 | -151.06904 | 22958 ft | 232 kts | 130° |
| 2026-04-27 15:03 | 57.39513 | -151.04359 | 23438 ft | 233 kts | 130° |
| 2026-04-27 15:03 | 57.38650 | -151.01811 | 23804 ft | 234 kts | 131° |
| 2026-04-27 15:03 | 57.37782 | -150.99251 | 24193 ft | 234 kts | 131° |
| 2026-04-27 15:03 | 57.36915 | -150.96696 | 24585 ft | 234 kts | 131° |
| 2026-04-27 15:04 | 57.36049 | -150.94148 | 24972 ft | 233 kts | 132° |
| 2026-04-27 15:04 | 57.35186 | -150.91609 | 25380 ft | 232 kts | 132° |
| 2026-04-27 15:04 | 57.34327 | -150.89084 | 25784 ft | 231 kts | 132° |
| 2026-04-27 15:04 | 57.33471 | -150.86576 | 26220 ft | 229 kts | 133° |
| 2026-04-27 15:05 | 57.32652 | -150.84162 | 26626 ft | 222 kts | 133° |
| 2026-04-27 15:05 | 57.31809 | -150.81711 | 26776 ft | 230 kts | 133° |
| 2026-04-27 15:05 | 57.30950 | -150.79208 | 26827 ft | 229 kts | 133° |
| 2026-04-27 15:05 | 57.30105 | -150.76732 | 26833 ft | 228 kts | 133° |
| 2026-04-27 15:06 | 57.29233 | -150.74203 | 26852 ft | 236 kts | 133° |
| 2026-04-27 15:06 | 57.28327 | -150.71579 | 26854 ft | 248 kts | 133° |
| 2026-04-27 15:06 | 57.27375 | -150.68818 | 26851 ft | 260 kts | 132° |
| 2026-04-27 15:06 | 57.26388 | -150.65945 | 26866 ft | 269 kts | 132° |
| 2026-04-27 15:07 | 57.25368 | -150.62977 | 26866 ft | 277 kts | 131° |
| 2026-04-27 15:07 | 57.24320 | -150.59929 | 26862 ft | 284 kts | 131° |
| 2026-04-27 15:07 | 57.23249 | -150.56818 | 26862 ft | 289 kts | 131° |
| 2026-04-27 15:07 | 57.22158 | -150.53656 | 26861 ft | 294 kts | 131° |
| 2026-04-27 15:08 | 57.21055 | -150.50461 | 26857 ft | 298 kts | 131° |
| 2026-04-27 15:08 | 57.19934 | -150.47223 | 26868 ft | 301 kts | 131° |
| 2026-04-27 15:08 | 57.18804 | -150.43962 | 26867 ft | 303 kts | 131° |
| 2026-04-27 15:08 | 57.17664 | -150.40679 | 26867 ft | 305 kts | 131° |
| 2026-04-27 15:09 | 57.16519 | -150.37385 | 26869 ft | 306 kts | 131° |
| 2026-04-27 15:09 | 57.15364 | -150.34069 | 26867 ft | 307 kts | 131° |
| 2026-04-27 15:09 | 57.14206 | -150.30749 | 26866 ft | 308 kts | 131° |
| 2026-04-27 15:09 | 57.13061 | -150.27471 | 26867 ft | 309 kts | 131° |
| 2026-04-27 15:10 | 57.11894 | -150.24137 | 26881 ft | 310 kts | 131° |
| 2026-04-27 15:10 | 57.10719 | -150.20784 | 26882 ft | 312 kts | 131° |
| 2026-04-27 15:10 | 57.09542 | -150.17429 | 26877 ft | 313 kts | 131° |
| 2026-04-27 15:10 | 57.08360 | -150.14065 | 26877 ft | 314 kts | 131° |
| 2026-04-27 15:11 | 57.07173 | -150.10692 | 26888 ft | 314 kts | 131° |
| 2026-04-27 15:11 | 57.05983 | -150.07315 | 26894 ft | 315 kts | 131° |
| 2026-04-27 15:11 | 57.04792 | -150.03939 | 26894 ft | 315 kts | 131° |
| 2026-04-27 15:11 | 57.03597 | -150.00557 | 26886 ft | 316 kts | 131° |
| 2026-04-27 15:12 | 57.02399 | -149.97170 | 26895 ft | 316 kts | 131° |
| 2026-04-27 15:12 | 57.01199 | -149.93785 | 26889 ft | 316 kts | 131° |
| 2026-04-27 15:12 | 56.99999 | -149.90402 | 26905 ft | 317 kts | 131° |
| 2026-04-27 15:12 | 56.98797 | -149.87021 | 26900 ft | 317 kts | 131° |
| 2026-04-27 15:13 | 56.97594 | -149.83639 | 26893 ft | 317 kts | 131° |
| 2026-04-27 15:13 | 56.96401 | -149.80293 | 26881 ft | 317 kts | 131° |
| 2026-04-27 15:13 | 56.95197 | -149.76917 | 26900 ft | 317 kts | 131° |
| 2026-04-27 15:13 | 56.93987 | -149.73533 | 26914 ft | 317 kts | 131° |
| 2026-04-27 15:14 | 56.92775 | -149.70147 | 26911 ft | 318 kts | 131° |
| 2026-04-27 15:14 | 56.91563 | -149.66766 | 26911 ft | 318 kts | 131° |
| 2026-04-27 15:14 | 56.90345 | -149.63375 | 26910 ft | 319 kts | 131° |
| 2026-04-27 15:14 | 56.89126 | -149.59981 | 26910 ft | 319 kts | 131° |
| 2026-04-27 15:15 | 56.87907 | -149.56596 | 26909 ft | 319 kts | 131° |
| 2026-04-27 15:15 | 56.86684 | -149.53202 | 26923 ft | 319 kts | 131° |
| 2026-04-27 15:15 | 56.85460 | -149.49811 | 26922 ft | 319 kts | 131° |
| 2026-04-27 15:15 | 56.84239 | -149.46432 | 26919 ft | 319 kts | 131° |
| 2026-04-27 15:16 | 56.83012 | -149.43043 | 26916 ft | 319 kts | 131° |
| 2026-04-27 15:16 | 56.81786 | -149.39661 | 26915 ft | 319 kts | 131° |
| 2026-04-27 15:16 | 56.80560 | -149.36284 | 26915 ft | 319 kts | 131° |
| 2026-04-27 15:16 | 56.79331 | -149.32902 | 26908 ft | 319 kts | 132° |
| 2026-04-27 15:17 | 56.78101 | -149.29524 | 26932 ft | 319 kts | 132° |
| 2026-04-27 15:17 | 56.76870 | -149.26147 | 26931 ft | 320 kts | 132° |
| 2026-04-27 15:17 | 56.75636 | -149.22766 | 26931 ft | 321 kts | 132° |
| 2026-04-27 15:17 | 56.74816 | -149.20522 | 26929 ft | 321 kts | 132° |
| 2026-04-27 15:18 | 56.73575 | -149.17131 | 26933 ft | 322 kts | 132° |
| 2026-04-27 15:18 | 56.72333 | -149.13741 | 26928 ft | 322 kts | 132° |
| 2026-04-27 15:18 | 56.71088 | -149.10350 | 26926 ft | 322 kts | 132° |
| 2026-04-27 15:18 | 56.69436 | -149.05855 | 26926 ft | 323 kts | 132° |
| 2026-04-27 15:19 | 56.68188 | -149.02464 | 26928 ft | 323 kts | 132° |
| 2026-04-27 15:19 | 56.66939 | -148.99074 | 26940 ft | 323 kts | 132° |
| 2026-04-27 15:19 | 56.66094 | -148.96786 | 26940 ft | 323 kts | 132° |
| 2026-04-27 15:19 | 56.64841 | -148.93394 | 26940 ft | 323 kts | 132° |
| 2026-04-27 15:20 | 56.63586 | -148.90004 | 26938 ft | 323 kts | 132° |
| 2026-04-27 15:20 | 56.62333 | -148.86622 | 26940 ft | 323 kts | 132° |
| 2026-04-27 15:20 | 56.61078 | -148.83240 | 26939 ft | 323 kts | 132° |
| 2026-04-27 15:20 | 56.59823 | -148.79862 | 26950 ft | 323 kts | 132° |
| 2026-04-27 15:21 | 56.58565 | -148.76483 | 26948 ft | 323 kts | 132° |
| 2026-04-27 15:21 | 56.57306 | -148.73104 | 26948 ft | 323 kts | 132° |
| 2026-04-27 15:21 | 56.56049 | -148.69735 | 26947 ft | 323 kts | 132° |
| 2026-04-27 15:21 | 56.54804 | -148.66403 | 26948 ft | 323 kts | 132° |
| 2026-04-27 15:22 | 56.53542 | -148.63030 | 26962 ft | 323 kts | 132° |
| 2026-04-27 15:22 | 56.52280 | -148.59662 | 26959 ft | 323 kts | 132° |
| 2026-04-27 15:22 | 56.51019 | -148.56301 | 26959 ft | 323 kts | 132° |
| 2026-04-27 15:22 | 56.49754 | -148.52936 | 26959 ft | 323 kts | 133° |
| 2026-04-27 15:23 | 56.48492 | -148.49580 | 26955 ft | 323 kts | 133° |
| 2026-04-27 15:23 | 56.47227 | -148.46224 | 26957 ft | 323 kts | 133° |
| 2026-04-27 15:23 | 56.45966 | -148.42881 | 26953 ft | 322 kts | 133° |
| 2026-04-27 15:23 | 56.44702 | -148.39536 | 26973 ft | 322 kts | 133° |
| 2026-04-27 15:24 | 56.43435 | -148.36190 | 26972 ft | 323 kts | 133° |
| 2026-04-27 15:24 | 56.42163 | -148.32833 | 26969 ft | 324 kts | 133° |
| 2026-04-27 15:24 | 56.40891 | -148.29479 | 26968 ft | 324 kts | 133° |
| 2026-04-27 15:24 | 56.39615 | -148.26123 | 26978 ft | 324 kts | 133° |
| 2026-04-27 15:25 | 56.38338 | -148.22766 | 26977 ft | 324 kts | 133° |
| 2026-04-27 15:25 | 56.37060 | -148.19410 | 26976 ft | 325 kts | 133° |
| 2026-04-27 15:25 | 56.35780 | -148.16055 | 26976 ft | 325 kts | 133° |
| 2026-04-27 15:25 | 56.34497 | -148.12696 | 26972 ft | 325 kts | 133° |
| 2026-04-27 15:26 | 56.33216 | -148.09347 | 26982 ft | 325 kts | 133° |
| 2026-04-27 15:26 | 56.31931 | -148.05994 | 26980 ft | 325 kts | 133° |
| 2026-04-27 15:26 | 56.30647 | -148.02648 | 26980 ft | 325 kts | 133° |
| 2026-04-27 15:26 | 56.29361 | -147.99299 | 26950 ft | 325 kts | 133° |
| 2026-04-27 15:27 | 56.28075 | -147.95954 | 26991 ft | 324 kts | 134° |
| 2026-04-27 15:27 | 56.26788 | -147.92617 | 26989 ft | 325 kts | 134° |
| 2026-04-27 15:27 | 56.25498 | -147.89273 | 26997 ft | 325 kts | 134° |
| 2026-04-27 15:27 | 56.24207 | -147.85930 | 26989 ft | 326 kts | 134° |
| 2026-04-27 15:28 | 56.22915 | -147.82589 | 26993 ft | 326 kts | 134° |
| 2026-04-27 15:28 | 56.21615 | -147.79235 | 26993 ft | 326 kts | 134° |
| 2026-04-27 15:28 | 56.20319 | -147.75892 | 26988 ft | 326 kts | 134° |
| 2026-04-27 15:28 | 56.19019 | -147.72547 | 26999 ft | 326 kts | 134° |
| 2026-04-27 15:29 | 56.17719 | -147.69204 | 27002 ft | 327 kts | 134° |
| 2026-04-27 15:29 | 56.16418 | -147.65863 | 26999 ft | 327 kts | 134° |
| 2026-04-27 15:29 | 56.15131 | -147.62563 | 27010 ft | 327 kts | 134° |
| 2026-04-27 15:29 | 56.13826 | -147.59221 | 27007 ft | 327 kts | 134° |
| 2026-04-27 15:30 | 56.12522 | -147.55886 | 26961 ft | 327 kts | 134° |
| 2026-04-27 15:30 | 56.11217 | -147.52552 | 27006 ft | 326 kts | 134° |
| 2026-04-27 15:30 | 56.09913 | -147.49229 | 27018 ft | 326 kts | 135° |
| 2026-04-27 15:30 | 56.08604 | -147.45898 | 27013 ft | 327 kts | 135° |
| 2026-04-27 15:31 | 56.07292 | -147.42562 | 27009 ft | 327 kts | 135° |
| 2026-04-27 15:31 | 56.05978 | -147.39225 | 27008 ft | 328 kts | 135° |
| 2026-04-27 15:31 | 56.04665 | -147.35894 | 27019 ft | 328 kts | 135° |
| 2026-04-27 15:31 | 56.03351 | -147.32565 | 27020 ft | 328 kts | 135° |
| 2026-04-27 15:32 | 56.02037 | -147.29243 | 27020 ft | 328 kts | 135° |
| 2026-04-27 15:32 | 56.00721 | -147.25920 | 27019 ft | 328 kts | 135° |
| 2026-04-27 15:32 | 55.99402 | -147.22591 | 27019 ft | 328 kts | 135° |
| 2026-04-27 15:32 | 55.98083 | -147.19269 | 27025 ft | 328 kts | 135° |
| 2026-04-27 15:33 | 55.96762 | -147.15947 | 27025 ft | 328 kts | 135° |
| 2026-04-27 15:33 | 55.95440 | -147.12626 | 26991 ft | 328 kts | 135° |
| 2026-04-27 15:33 | 55.94120 | -147.09311 | 27020 ft | 328 kts | 135° |
| 2026-04-27 15:33 | 55.92796 | -147.05996 | 27027 ft | 328 kts | 135° |
| 2026-04-27 15:34 | 55.91467 | -147.02673 | 27033 ft | 329 kts | 135° |
| 2026-04-27 15:34 | 55.90154 | -146.99393 | 27042 ft | 329 kts | 135° |
| 2026-04-27 15:34 | 55.88823 | -146.96072 | 27038 ft | 330 kts | 135° |
| 2026-04-27 15:34 | 55.87489 | -146.92749 | 27043 ft | 330 kts | 135° |
| 2026-04-27 15:35 | 55.86153 | -146.89425 | 27038 ft | 330 kts | 135° |
| 2026-04-27 15:35 | 55.84816 | -146.86102 | 27037 ft | 330 kts | 135° |
| 2026-04-27 15:35 | 55.83476 | -146.82779 | 27035 ft | 331 kts | 135° |
| 2026-04-27 15:35 | 55.82134 | -146.79453 | 27038 ft | 330 kts | 135° |
| 2026-04-27 15:36 | 55.80813 | -146.76175 | 27041 ft | 325 kts | 135° |
| 2026-04-27 15:36 | 55.79490 | -146.72910 | 27037 ft | 326 kts | 136° |
| 2026-04-27 15:36 | 55.78163 | -146.69638 | 27005 ft | 327 kts | 136° |
| 2026-04-27 15:36 | 55.76832 | -146.66356 | 27047 ft | 327 kts | 136° |
| 2026-04-27 15:37 | 55.75495 | -146.63067 | 27057 ft | 329 kts | 136° |
| 2026-04-27 15:37 | 55.74155 | -146.59773 | 27048 ft | 330 kts | 136° |
| 2026-04-27 15:37 | 55.72809 | -146.56470 | 27049 ft | 331 kts | 136° |
| 2026-04-27 15:37 | 55.71457 | -146.53156 | 27050 ft | 331 kts | 136° |
| 2026-04-27 15:38 | 55.70106 | -146.49847 | 27056 ft | 332 kts | 136° |
| 2026-04-27 15:38 | 55.68750 | -146.46530 | 27055 ft | 332 kts | 136° |
| 2026-04-27 15:38 | 55.67391 | -146.43211 | 27054 ft | 333 kts | 136° |
| 2026-04-27 15:38 | 55.66049 | -146.39939 | 27054 ft | 332 kts | 136° |
| 2026-04-27 15:39 | 55.64691 | -146.36632 | 27054 ft | 332 kts | 136° |
| 2026-04-27 15:39 | 55.63331 | -146.33324 | 27066 ft | 331 kts | 136° |
| 2026-04-27 15:39 | 55.61979 | -146.30038 | 27064 ft | 330 kts | 136° |
| 2026-04-27 15:39 | 55.60624 | -146.26754 | 27025 ft | 331 kts | 136° |
| 2026-04-27 15:40 | 55.59268 | -146.23468 | 27064 ft | 331 kts | 136° |
| 2026-04-27 15:40 | 55.57904 | -146.20171 | 27070 ft | 332 kts | 136° |
| 2026-04-27 15:40 | 55.56539 | -146.16876 | 27074 ft | 333 kts | 136° |
| 2026-04-27 15:40 | 55.55171 | -146.13574 | 27076 ft | 334 kts | 136° |
| 2026-04-27 15:41 | 55.53796 | -146.10261 | 27072 ft | 334 kts | 136° |
| 2026-04-27 15:41 | 55.52424 | -146.06959 | 27073 ft | 334 kts | 136° |
| 2026-04-27 15:41 | 55.51049 | -146.03655 | 27073 ft | 334 kts | 136° |
| 2026-04-27 15:41 | 55.49677 | -146.00363 | 27076 ft | 334 kts | 136° |
| 2026-04-27 15:42 | 55.48299 | -145.97062 | 27080 ft | 334 kts | 136° |
| 2026-04-27 15:42 | 55.46924 | -145.93773 | 27080 ft | 334 kts | 136° |
| 2026-04-27 15:42 | 55.45544 | -145.90475 | 27079 ft | 334 kts | 136° |
| 2026-04-27 15:42 | 55.44167 | -145.87189 | 27079 ft | 334 kts | 137° |
| 2026-04-27 15:43 | 55.42787 | -145.83899 | 27061 ft | 334 kts | 137° |
| 2026-04-27 15:43 | 55.41405 | -145.80613 | 27089 ft | 334 kts | 137° |
| 2026-04-27 15:43 | 55.40019 | -145.77317 | 27090 ft | 334 kts | 137° |
| 2026-04-27 15:43 | 55.38638 | -145.74039 | 27087 ft | 334 kts | 137° |
| 2026-04-27 15:44 | 55.37266 | -145.70788 | 27089 ft | 336 kts | 137° |
| 2026-04-27 15:44 | 55.35872 | -145.67489 | 27096 ft | 336 kts | 137° |
| 2026-04-27 15:44 | 55.34473 | -145.64181 | 27090 ft | 337 kts | 137° |
| 2026-04-27 15:44 | 55.33072 | -145.60872 | 27090 ft | 337 kts | 137° |
| 2026-04-27 15:45 | 55.31675 | -145.57577 | 27090 ft | 337 kts | 137° |
| 2026-04-27 15:45 | 55.30239 | -145.54352 | 27093 ft | 335 kts | 139° |
| 2026-04-27 15:45 | 55.28840 | -145.51055 | 27102 ft | 338 kts | 136° |
| 2026-04-27 15:45 | 55.27457 | -145.47727 | 27101 ft | 337 kts | 136° |
| 2026-04-27 15:46 | 55.26063 | -145.44419 | 27078 ft | 337 kts | 137° |
| 2026-04-27 15:46 | 55.24660 | -145.41116 | 27092 ft | 337 kts | 137° |
| 2026-04-27 15:46 | 55.23271 | -145.37858 | 27105 ft | 338 kts | 137° |
| 2026-04-27 15:46 | 55.21855 | -145.34548 | 27112 ft | 338 kts | 137° |
| 2026-04-27 15:47 | 55.20439 | -145.31244 | 27112 ft | 339 kts | 137° |
| 2026-04-27 15:47 | 55.19020 | -145.27938 | 27110 ft | 339 kts | 137° |
| 2026-04-27 15:47 | 55.17605 | -145.24643 | 27106 ft | 339 kts | 137° |
| 2026-04-27 15:47 | 55.16188 | -145.21350 | 27107 ft | 339 kts | 137° |
| 2026-04-27 15:48 | 55.14768 | -145.18056 | 27118 ft | 339 kts | 137° |
| 2026-04-27 15:48 | 55.13348 | -145.14766 | 27120 ft | 339 kts | 137° |
| 2026-04-27 15:48 | 55.11929 | -145.11481 | 27112 ft | 339 kts | 137° |
| 2026-04-27 15:49 | 55.09085 | -145.04915 | 27119 ft | 339 kts | 137° |
| 2026-04-27 15:49 | 55.07683 | -145.01681 | 27085 ft | 338 kts | 138° |
| 2026-04-27 15:49 | 55.06260 | -144.98407 | 27117 ft | 338 kts | 138° |
| 2026-04-27 15:49 | 55.04841 | -144.95146 | 27125 ft | 339 kts | 138° |
| 2026-04-27 15:50 | 55.03415 | -144.91873 | 27124 ft | 340 kts | 138° |
| 2026-04-27 15:50 | 55.01982 | -144.88589 | 27121 ft | 340 kts | 138° |
| 2026-04-27 15:50 | 55.00546 | -144.85300 | 27123 ft | 341 kts | 138° |
| 2026-04-27 15:50 | 54.99112 | -144.82021 | 27122 ft | 340 kts | 138° |
| 2026-04-27 15:51 | 54.97676 | -144.78740 | 27122 ft | 340 kts | 138° |
| 2026-04-27 15:51 | 54.96242 | -144.75472 | 27123 ft | 340 kts | 138° |
| 2026-04-27 15:51 | 54.94803 | -144.72195 | 27123 ft | 341 kts | 138° |
| 2026-04-27 15:51 | 54.93364 | -144.68923 | 27131 ft | 340 kts | 138° |
| 2026-04-27 15:52 | 54.91927 | -144.65658 | 27134 ft | 340 kts | 138° |
| 2026-04-27 15:52 | 54.90488 | -144.62394 | 27134 ft | 340 kts | 138° |
| 2026-04-27 15:52 | 54.89049 | -144.59135 | 27134 ft | 340 kts | 138° |
| 2026-04-27 15:52 | 54.87606 | -144.55869 | 27134 ft | 340 kts | 138° |
| 2026-04-27 15:53 | 54.86169 | -144.52623 | 27139 ft | 339 kts | 138° |
| 2026-04-27 15:53 | 54.84748 | -144.49416 | 27140 ft | 340 kts | 138° |
| 2026-04-27 15:53 | 54.83304 | -144.46165 | 27139 ft | 340 kts | 138° |
| 2026-04-27 15:53 | 54.81860 | -144.42914 | 27140 ft | 339 kts | 138° |
| 2026-04-27 15:54 | 54.80421 | -144.39677 | 27140 ft | 338 kts | 139° |
| 2026-04-27 15:54 | 54.78984 | -144.36452 | 27144 ft | 338 kts | 139° |
| 2026-04-27 15:54 | 54.77548 | -144.33232 | 27144 ft | 337 kts | 139° |
| 2026-04-27 15:54 | 54.76113 | -144.30022 | 27145 ft | 338 kts | 139° |
| 2026-04-27 15:55 | 54.74670 | -144.26797 | 27143 ft | 339 kts | 139° |
| 2026-04-27 15:55 | 54.73711 | -144.24656 | 27145 ft | 339 kts | 139° |
| 2026-04-27 15:55 | 54.71782 | -144.20352 | 27144 ft | 338 kts | 139° |
| 2026-04-27 15:55 | 54.70337 | -144.17135 | 27151 ft | 338 kts | 139° |
| 2026-04-27 15:56 | 54.68892 | -144.13921 | 27151 ft | 339 kts | 139° |
| 2026-04-27 15:56 | 54.67444 | -144.10706 | 27150 ft | 339 kts | 139° |
| 2026-04-27 15:56 | 54.65993 | -144.07487 | 27160 ft | 340 kts | 139° |
| 2026-04-27 15:56 | 54.64541 | -144.04268 | 27152 ft | 339 kts | 139° |
| 2026-04-27 15:57 | 54.63084 | -144.01044 | 27151 ft | 339 kts | 139° |
| 2026-04-27 15:57 | 54.61632 | -143.97838 | 27155 ft | 339 kts | 139° |
| 2026-04-27 15:57 | 54.60197 | -143.94670 | 27157 ft | 339 kts | 139° |
| 2026-04-27 15:57 | 54.58743 | -143.91465 | 27161 ft | 339 kts | 139° |
| 2026-04-27 15:58 | 54.57287 | -143.88262 | 27158 ft | 339 kts | 139° |
| 2026-04-27 15:58 | 54.55832 | -143.85062 | 27163 ft | 339 kts | 139° |
| 2026-04-27 15:58 | 54.54374 | -143.81862 | 27141 ft | 339 kts | 139° |
| 2026-04-27 15:58 | 54.52918 | -143.78669 | 27163 ft | 339 kts | 139° |
| 2026-04-27 15:59 | 54.51461 | -143.75479 | 27165 ft | 340 kts | 139° |
| 2026-04-27 15:59 | 54.49999 | -143.72283 | 27164 ft | 340 kts | 139° |
| 2026-04-27 15:59 | 54.48536 | -143.69086 | 27162 ft | 340 kts | 139° |
| 2026-04-27 15:59 | 54.47072 | -143.65892 | 27163 ft | 340 kts | 139° |
| 2026-04-27 16:00 | 54.45608 | -143.62705 | 27163 ft | 341 kts | 139° |
| 2026-04-27 16:00 | 54.44638 | -143.60593 | 27169 ft | 341 kts | 139° |
| 2026-04-27 16:00 | 54.42672 | -143.56321 | 27170 ft | 340 kts | 139° |
| 2026-04-27 16:00 | 54.41204 | -143.53135 | 27170 ft | 340 kts | 139° |
| 2026-04-27 16:01 | 54.39736 | -143.49952 | 27169 ft | 340 kts | 139° |
| 2026-04-27 16:01 | 54.38265 | -143.46770 | 27165 ft | 340 kts | 139° |
| 2026-04-27 16:01 | 54.36794 | -143.43591 | 27149 ft | 340 kts | 139° |
| 2026-04-27 16:01 | 54.35325 | -143.40418 | 27172 ft | 339 kts | 139° |
| 2026-04-27 16:02 | 54.33853 | -143.37245 | 27177 ft | 340 kts | 139° |
| 2026-04-27 16:02 | 54.32381 | -143.34076 | 27177 ft | 340 kts | 139° |
| 2026-04-27 16:02 | 54.30927 | -143.30948 | 27166 ft | 340 kts | 139° |
| 2026-04-27 16:02 | 54.29450 | -143.27777 | 27183 ft | 341 kts | 139° |
| 2026-04-27 16:03 | 54.27974 | -143.24611 | 27177 ft | 341 kts | 139° |
| 2026-04-27 16:03 | 54.26498 | -143.21448 | 27176 ft | 341 kts | 139° |
| 2026-04-27 16:03 | 54.25017 | -143.18279 | 27182 ft | 340 kts | 139° |
| 2026-04-27 16:03 | 54.23541 | -143.15124 | 27177 ft | 339 kts | 139° |
| 2026-04-27 16:04 | 54.22065 | -143.11974 | 27188 ft | 340 kts | 139° |
| 2026-04-27 16:04 | 54.20587 | -143.08823 | 27182 ft | 340 kts | 139° |
| 2026-04-27 16:04 | 54.19107 | -143.05675 | 27161 ft | 340 kts | 139° |
| 2026-04-27 16:04 | 54.17627 | -143.02527 | 27185 ft | 340 kts | 139° |
| 2026-04-27 16:05 | 54.16145 | -142.99381 | 27190 ft | 340 kts | 139° |
| 2026-04-27 16:05 | 54.14662 | -142.96236 | 27188 ft | 341 kts | 139° |
| 2026-04-27 16:05 | 54.13173 | -142.93083 | 27188 ft | 341 kts | 139° |
| 2026-04-27 16:05 | 54.11683 | -142.89931 | 27188 ft | 341 kts | 139° |
| 2026-04-27 16:06 | 54.10192 | -142.86781 | 27188 ft | 341 kts | 139° |
| 2026-04-27 16:06 | 54.08698 | -142.83629 | 27197 ft | 342 kts | 139° |
| 2026-04-27 16:06 | 54.07203 | -142.80478 | 27197 ft | 342 kts | 139° |
| 2026-04-27 16:06 | 54.05710 | -142.77336 | 27197 ft | 342 kts | 139° |
| 2026-04-27 16:07 | 54.04719 | -142.75253 | 27196 ft | 342 kts | 139° |
| 2026-04-27 16:07 | 54.03223 | -142.72111 | 27197 ft | 342 kts | 139° |
| 2026-04-27 16:07 | 54.01731 | -142.68979 | 27155 ft | 339 kts | 139° |
| 2026-04-27 16:07 | 53.99743 | -142.64818 | 27200 ft | 339 kts | 139° |
| 2026-04-27 16:08 | 53.98755 | -142.62753 | 27202 ft | 340 kts | 139° |
| 2026-04-27 16:08 | 53.97263 | -142.59636 | 27197 ft | 341 kts | 139° |
| 2026-04-27 16:08 | 53.95762 | -142.56504 | 27196 ft | 342 kts | 139° |
| 2026-04-27 16:08 | 53.94256 | -142.53366 | 27204 ft | 343 kts | 139° |
| 2026-04-27 16:09 | 53.92748 | -142.50226 | 27205 ft | 343 kts | 139° |
| 2026-04-27 16:09 | 53.89728 | -142.43950 | 27204 ft | 343 kts | 139° |
| 2026-04-27 16:09 | 53.88219 | -142.40821 | 27204 ft | 343 kts | 139° |
| 2026-04-27 16:10 | 53.85199 | -142.34570 | 27211 ft | 343 kts | 139° |
| 2026-04-27 16:10 | 53.82177 | -142.28333 | 27207 ft | 343 kts | 139° |
| 2026-04-27 16:11 | 53.80660 | -142.25207 | 27213 ft | 344 kts | 139° |
| 2026-04-27 16:11 | 53.77608 | -142.18929 | 27213 ft | 346 kts | 139° |
| 2026-04-27 16:12 | 53.74546 | -142.12645 | 27215 ft | 347 kts | 139° |
| 2026-04-27 16:12 | 53.73015 | -142.09510 | 27220 ft | 346 kts | 139° |
| 2026-04-27 16:12 | 53.69947 | -142.03239 | 27221 ft | 346 kts | 139° |
| 2026-04-27 16:13 | 53.68411 | -142.00107 | 27221 ft | 346 kts | 139° |
| 2026-04-27 16:13 | 53.65345 | -141.93865 | 27195 ft | 346 kts | 138° |
| 2026-04-27 16:13 | 53.63808 | -141.90742 | 27222 ft | 346 kts | 138° |
| 2026-04-27 16:14 | 53.60744 | -141.84528 | 27224 ft | 348 kts | 138° |
| 2026-04-27 16:14 | 53.57645 | -141.78257 | 27229 ft | 348 kts | 138° |
| 2026-04-27 16:15 | 53.54544 | -141.71999 | 27229 ft | 348 kts | 138° |
| 2026-04-27 16:15 | 53.51444 | -141.65763 | 27234 ft | 347 kts | 139° |
| 2026-04-27 16:16 | 53.48347 | -141.59543 | 27237 ft | 347 kts | 139° |
| 2026-04-27 16:16 | 53.45240 | -141.53317 | 27239 ft | 348 kts | 138° |
| 2026-04-27 16:17 | 53.42119 | -141.47081 | 27240 ft | 349 kts | 138° |
| 2026-04-27 16:17 | 53.38990 | -141.40843 | 27239 ft | 350 kts | 138° |
| 2026-04-27 16:18 | 53.35888 | -141.34676 | 27239 ft | 349 kts | 138° |
| 2026-04-27 16:18 | 53.32754 | -141.28462 | 27240 ft | 349 kts | 139° |
| 2026-04-27 16:19 | 53.31185 | -141.25356 | 27243 ft | 349 kts | 139° |
| 2026-04-27 16:19 | 53.29616 | -141.22256 | 27219 ft | 349 kts | 138° |
| 2026-04-27 16:20 | 53.24895 | -141.12947 | 27242 ft | 351 kts | 138° |
| 2026-04-27 16:20 | 53.23314 | -141.09836 | 27240 ft | 352 kts | 138° |
| 2026-04-27 16:20 | 53.20147 | -141.03618 | 27251 ft | 352 kts | 138° |
| 2026-04-27 16:21 | 53.18557 | -141.00502 | 27242 ft | 353 kts | 138° |
| 2026-04-27 16:21 | 53.13780 | -140.91165 | 27251 ft | 353 kts | 138° |
| 2026-04-27 16:22 | 53.12187 | -140.88059 | 27252 ft | 353 kts | 138° |
| 2026-04-27 16:22 | 53.09000 | -140.81855 | 27250 ft | 353 kts | 138° |
| 2026-04-27 16:22 | 53.07404 | -140.78756 | 27255 ft | 352 kts | 138° |
| 2026-04-27 16:23 | 53.05832 | -140.75706 | 27254 ft | 352 kts | 138° |
| 2026-04-27 16:23 | 53.02641 | -140.69527 | 27249 ft | 352 kts | 138° |
| 2026-04-27 16:23 | 53.01046 | -140.66444 | 27251 ft | 352 kts | 138° |
| 2026-04-27 16:24 | 52.99453 | -140.63369 | 27256 ft | 351 kts | 138° |
| 2026-04-27 16:24 | 52.96266 | -140.57227 | 27252 ft | 351 kts | 138° |
| 2026-04-27 16:25 | 52.93079 | -140.51103 | 27240 ft | 350 kts | 138° |
| 2026-04-27 16:25 | 52.89895 | -140.44996 | 27261 ft | 350 kts | 138° |
| 2026-04-27 16:26 | 52.86702 | -140.38890 | 27262 ft | 351 kts | 138° |
| 2026-04-27 16:26 | 52.83505 | -140.32789 | 27260 ft | 351 kts | 138° |
| 2026-04-27 16:27 | 52.80307 | -140.26702 | 27265 ft | 351 kts | 138° |
| 2026-04-27 16:27 | 52.75507 | -140.17593 | 27245 ft | 350 kts | 137° |
| 2026-04-27 16:28 | 52.72328 | -140.11581 | 27265 ft | 350 kts | 137° |
| 2026-04-27 16:28 | 52.69120 | -140.05526 | 27264 ft | 351 kts | 137° |
| 2026-04-27 16:29 | 52.64298 | -139.96454 | 27267 ft | 351 kts | 137° |
| 2026-04-27 16:30 | 52.61068 | -139.90396 | 27270 ft | 352 kts | 137° |
| 2026-04-27 16:30 | 52.57836 | -139.84348 | 27245 ft | 353 kts | 137° |
| 2026-04-27 16:31 | 52.52962 | -139.75255 | 27268 ft | 354 kts | 137° |
| 2026-04-27 16:31 | 52.49715 | -139.69216 | 27269 ft | 356 kts | 137° |
| 2026-04-27 16:32 | 52.46403 | -139.63072 | 27272 ft | 358 kts | 137° |
| 2026-04-27 16:32 | 52.44751 | -139.60012 | 27272 ft | 358 kts | 137° |
| 2026-04-27 16:33 | 52.41468 | -139.53944 | 27275 ft | 359 kts | 137° |
| 2026-04-27 16:33 | 52.39809 | -139.50883 | 27255 ft | 359 kts | 136° |
| 2026-04-27 16:33 | 52.38150 | -139.47826 | 27274 ft | 359 kts | 137° |
| 2026-04-27 16:33 | 52.36490 | -139.44771 | 27273 ft | 359 kts | 137° |
| 2026-04-27 16:34 | 52.34827 | -139.41712 | 27280 ft | 360 kts | 137° |
| 2026-04-27 16:34 | 52.33162 | -139.38655 | 27276 ft | 360 kts | 137° |
| 2026-04-27 16:34 | 52.31495 | -139.35598 | 27277 ft | 360 kts | 137° |
| 2026-04-27 16:34 | 52.29828 | -139.32545 | 27275 ft | 360 kts | 137° |
| 2026-04-27 16:35 | 52.28163 | -139.29500 | 27283 ft | 360 kts | 137° |
| 2026-04-27 16:35 | 52.26495 | -139.26451 | 27276 ft | 360 kts | 137° |
| 2026-04-27 16:35 | 52.23161 | -139.20373 | 27279 ft | 360 kts | 137° |
| 2026-04-27 16:36 | 52.21491 | -139.17333 | 27263 ft | 359 kts | 136° |
| 2026-04-27 16:36 | 52.19823 | -139.14301 | 27266 ft | 359 kts | 136° |
| 2026-04-27 16:36 | 52.18156 | -139.11273 | 27276 ft | 359 kts | 136° |
| 2026-04-27 16:36 | 52.16507 | -139.08282 | 27276 ft | 359 kts | 137° |
| 2026-04-27 16:37 | 52.14834 | -139.05252 | 27278 ft | 360 kts | 137° |
| 2026-04-27 16:37 | 52.13162 | -139.02226 | 27278 ft | 360 kts | 137° |
| 2026-04-27 16:37 | 52.11488 | -138.99200 | 27278 ft | 360 kts | 137° |
| 2026-04-27 16:37 | 52.09812 | -138.96175 | 27277 ft | 360 kts | 137° |
| 2026-04-27 16:38 | 52.08138 | -138.93158 | 27277 ft | 359 kts | 137° |
| 2026-04-27 16:38 | 52.06462 | -138.90139 | 27278 ft | 360 kts | 137° |
| 2026-04-27 16:38 | 52.04785 | -138.87124 | 27278 ft | 360 kts | 137° |
| 2026-04-27 16:38 | 52.03108 | -138.84114 | 27271 ft | 360 kts | 136° |
| 2026-04-27 16:39 | 52.01432 | -138.81106 | 27281 ft | 360 kts | 136° |
| 2026-04-27 16:39 | 51.99750 | -138.78092 | 27280 ft | 360 kts | 136° |
| 2026-04-27 16:39 | 51.98067 | -138.75079 | 27281 ft | 360 kts | 136° |
| 2026-04-27 16:39 | 51.96383 | -138.72070 | 27281 ft | 360 kts | 136° |
| 2026-04-27 16:40 | 51.94699 | -138.69062 | 27281 ft | 360 kts | 136° |
| 2026-04-27 16:40 | 51.93012 | -138.66055 | 27281 ft | 360 kts | 136° |
| 2026-04-27 16:40 | 51.91331 | -138.63060 | 27280 ft | 359 kts | 136° |
| 2026-04-27 16:40 | 51.89645 | -138.60062 | 27280 ft | 359 kts | 137° |
| 2026-04-27 16:41 | 51.87960 | -138.57068 | 27281 ft | 359 kts | 137° |
| 2026-04-27 16:41 | 51.86277 | -138.54082 | 27280 ft | 359 kts | 137° |
| 2026-04-27 16:41 | 51.84592 | -138.51096 | 27275 ft | 359 kts | 136° |
| 2026-04-27 16:41 | 51.82907 | -138.48114 | 27279 ft | 359 kts | 136° |
| 2026-04-27 16:42 | 51.81224 | -138.45137 | 27280 ft | 359 kts | 136° |
| 2026-04-27 16:42 | 51.79561 | -138.42200 | 27281 ft | 359 kts | 136° |
| 2026-04-27 16:42 | 51.77880 | -138.39234 | 27281 ft | 359 kts | 136° |
| 2026-04-27 16:42 | 51.76193 | -138.36262 | 27283 ft | 358 kts | 136° |
| 2026-04-27 16:43 | 51.74512 | -138.33302 | 27280 ft | 358 kts | 136° |
| 2026-04-27 16:43 | 51.72827 | -138.30340 | 27280 ft | 358 kts | 136° |
| 2026-04-27 16:43 | 51.71144 | -138.27385 | 27280 ft | 358 kts | 136° |
| 2026-04-27 16:43 | 51.69456 | -138.24426 | 27280 ft | 358 kts | 136° |
| 2026-04-27 16:44 | 51.67773 | -138.21478 | 27277 ft | 357 kts | 136° |
| 2026-04-27 16:44 | 51.66092 | -138.18539 | 27280 ft | 357 kts | 136° |
| 2026-04-27 16:44 | 51.64405 | -138.15591 | 27284 ft | 357 kts | 136° |
| 2026-04-27 16:44 | 51.62726 | -138.12659 | 27283 ft | 357 kts | 136° |
| 2026-04-27 16:45 | 51.61045 | -138.09729 | 27281 ft | 357 kts | 136° |
| 2026-04-27 16:45 | 51.59361 | -138.06796 | 27280 ft | 357 kts | 136° |
| 2026-04-27 16:45 | 51.57678 | -138.03869 | 27280 ft | 357 kts | 136° |
| 2026-04-27 16:45 | 51.55994 | -138.00945 | 27280 ft | 357 kts | 136° |
| 2026-04-27 16:46 | 51.54309 | -137.98021 | 27283 ft | 356 kts | 136° |
| 2026-04-27 16:46 | 51.52623 | -137.95099 | 27283 ft | 356 kts | 136° |
| 2026-04-27 16:46 | 51.50939 | -137.92183 | 27283 ft | 357 kts | 136° |
| 2026-04-27 16:46 | 51.49251 | -137.89266 | 27266 ft | 357 kts | 136° |
| 2026-04-27 16:47 | 51.47580 | -137.86380 | 27276 ft | 357 kts | 135° |
| 2026-04-27 16:47 | 51.45887 | -137.83459 | 27282 ft | 358 kts | 136° |
| 2026-04-27 16:47 | 51.44185 | -137.80527 | 27281 ft | 359 kts | 136° |
| 2026-04-27 16:47 | 51.42486 | -137.77602 | 27280 ft | 360 kts | 136° |
| 2026-04-27 16:48 | 51.40774 | -137.74660 | 27284 ft | 360 kts | 136° |
| 2026-04-27 16:48 | 51.39071 | -137.71736 | 27283 ft | 361 kts | 136° |
| 2026-04-27 16:48 | 51.37356 | -137.68794 | 27284 ft | 362 kts | 136° |
| 2026-04-27 16:49 | 51.33923 | -137.62917 | 27283 ft | 362 kts | 136° |
| 2026-04-27 16:49 | 51.32194 | -137.59963 | 27285 ft | 363 kts | 136° |
| 2026-04-27 16:49 | 51.30472 | -137.57024 | 27284 ft | 363 kts | 136° |
| 2026-04-27 16:49 | 51.28746 | -137.54081 | 27283 ft | 362 kts | 136° |
| 2026-04-27 16:50 | 51.27021 | -137.51143 | 27283 ft | 362 kts | 136° |
| 2026-04-27 16:50 | 51.25294 | -137.48207 | 27283 ft | 362 kts | 136° |
| 2026-04-27 16:50 | 51.23570 | -137.45279 | 27283 ft | 362 kts | 136° |
| 2026-04-27 16:50 | 51.21853 | -137.42364 | 27283 ft | 362 kts | 136° |
| 2026-04-27 16:51 | 51.20123 | -137.39433 | 27282 ft | 363 kts | 136° |
| 2026-04-27 16:51 | 51.18415 | -137.36542 | 27284 ft | 363 kts | 136° |
| 2026-04-27 16:51 | 51.16668 | -137.33589 | 27283 ft | 363 kts | 136° |
| 2026-04-27 16:51 | 51.14929 | -137.30652 | 27283 ft | 363 kts | 136° |
| 2026-04-27 16:52 | 51.13228 | -137.27782 | 27279 ft | 363 kts | 135° |
| 2026-04-27 16:52 | 51.11495 | -137.24863 | 27285 ft | 363 kts | 135° |
| 2026-04-27 16:52 | 51.09758 | -137.21939 | 27286 ft | 363 kts | 135° |
| 2026-04-27 16:52 | 51.08024 | -137.19023 | 27287 ft | 363 kts | 136° |
| 2026-04-27 16:53 | 51.06281 | -137.16098 | 27285 ft | 363 kts | 136° |
| 2026-04-27 16:53 | 51.04559 | -137.13209 | 27286 ft | 363 kts | 136° |
| 2026-04-27 16:53 | 51.02821 | -137.10298 | 27286 ft | 363 kts | 136° |
| 2026-04-27 16:53 | 51.01080 | -137.07385 | 27286 ft | 363 kts | 136° |
| 2026-04-27 16:54 | 50.99338 | -137.04475 | 27285 ft | 363 kts | 136° |
| 2026-04-27 16:54 | 50.97600 | -137.01573 | 27286 ft | 363 kts | 136° |
| 2026-04-27 16:54 | 50.95862 | -136.98676 | 27286 ft | 363 kts | 136° |
| 2026-04-27 16:54 | 50.94121 | -136.95777 | 27284 ft | 363 kts | 135° |
| 2026-04-27 16:55 | 50.92402 | -136.92916 | 27286 ft | 363 kts | 135° |
| 2026-04-27 16:55 | 50.90639 | -136.89987 | 27285 ft | 363 kts | 135° |
| 2026-04-27 16:55 | 50.88915 | -136.87127 | 27285 ft | 363 kts | 135° |
| 2026-04-27 16:55 | 50.87151 | -136.84202 | 27285 ft | 363 kts | 135° |
| 2026-04-27 16:56 | 50.85433 | -136.81358 | 27287 ft | 363 kts | 135° |
| 2026-04-27 16:56 | 50.83683 | -136.78464 | 27286 ft | 363 kts | 135° |
| 2026-04-27 16:56 | 50.81931 | -136.75571 | 27286 ft | 363 kts | 135° |
| 2026-04-27 16:56 | 50.80184 | -136.72688 | 27285 ft | 363 kts | 136° |
| 2026-04-27 16:57 | 50.78434 | -136.69803 | 27286 ft | 363 kts | 136° |
| 2026-04-27 16:57 | 50.76688 | -136.66930 | 27283 ft | 363 kts | 135° |
| 2026-04-27 16:57 | 50.74941 | -136.64057 | 27285 ft | 362 kts | 135° |
| 2026-04-27 16:57 | 50.73187 | -136.61177 | 27287 ft | 363 kts | 135° |
| 2026-04-27 16:58 | 50.72029 | -136.59277 | 27285 ft | 363 kts | 135° |
| 2026-04-27 16:58 | 50.70298 | -136.56438 | 27286 ft | 363 kts | 135° |
| 2026-04-27 16:58 | 50.68546 | -136.53570 | 27285 ft | 362 kts | 135° |
| 2026-04-27 16:58 | 50.66796 | -136.50708 | 27285 ft | 363 kts | 135° |
| 2026-04-27 16:59 | 50.65040 | -136.47839 | 27286 ft | 363 kts | 135° |
| 2026-04-27 16:59 | 50.63287 | -136.44980 | 27285 ft | 363 kts | 135° |
| 2026-04-27 16:59 | 50.61538 | -136.42129 | 27286 ft | 363 kts | 135° |
| 2026-04-27 16:59 | 50.59782 | -136.39270 | 27285 ft | 363 kts | 135° |
| 2026-04-27 17:00 | 50.56861 | -136.34522 | 27284 ft | 363 kts | 135° |
| 2026-04-27 17:00 | 50.54538 | -136.30752 | 27290 ft | 363 kts | 135° |
| 2026-04-27 17:00 | 50.52771 | -136.27890 | 27289 ft | 364 kts | 135° |
| 2026-04-27 17:01 | 50.51006 | -136.25032 | 27289 ft | 363 kts | 135° |
| 2026-04-27 17:01 | 50.49239 | -136.22175 | 27285 ft | 363 kts | 135° |
| 2026-04-27 17:01 | 50.47476 | -136.19328 | 27285 ft | 363 kts | 135° |
| 2026-04-27 17:01 | 50.45714 | -136.16486 | 27286 ft | 363 kts | 135° |
| 2026-04-27 17:02 | 50.43952 | -136.13647 | 27286 ft | 363 kts | 135° |
| 2026-04-27 17:02 | 50.42190 | -136.10810 | 27286 ft | 363 kts | 135° |
| 2026-04-27 17:02 | 50.40426 | -136.07974 | 27284 ft | 363 kts | 135° |
| 2026-04-27 17:02 | 50.38662 | -136.05142 | 27286 ft | 363 kts | 135° |
| 2026-04-27 17:03 | 50.36922 | -136.02351 | 27286 ft | 363 kts | 135° |
| 2026-04-27 17:03 | 50.35158 | -135.99526 | 27286 ft | 363 kts | 135° |
| 2026-04-27 17:03 | 50.33392 | -135.96699 | 27283 ft | 363 kts | 135° |
| 2026-04-27 17:03 | 50.31627 | -135.93876 | 27283 ft | 363 kts | 135° |
| 2026-04-27 17:04 | 50.29858 | -135.91052 | 27283 ft | 363 kts | 135° |
| 2026-04-27 17:04 | 50.28089 | -135.88231 | 27282 ft | 363 kts | 136° |
| 2026-04-27 17:04 | 50.26322 | -135.85417 | 27286 ft | 363 kts | 136° |
| 2026-04-27 17:04 | 50.24553 | -135.82601 | 27285 ft | 363 kts | 136° |
| 2026-04-27 17:05 | 50.22784 | -135.79789 | 27285 ft | 363 kts | 135° |
| 2026-04-27 17:05 | 50.21012 | -135.76976 | 27289 ft | 363 kts | 135° |
| 2026-04-27 17:05 | 50.19239 | -135.74163 | 27286 ft | 363 kts | 135° |
| 2026-04-27 17:05 | 50.17470 | -135.71361 | 27286 ft | 363 kts | 135° |
| 2026-04-27 17:06 | 50.15696 | -135.68554 | 27282 ft | 363 kts | 135° |
| 2026-04-27 17:06 | 50.13921 | -135.65748 | 27284 ft | 363 kts | 135° |
| 2026-04-27 17:06 | 50.12146 | -135.62945 | 27283 ft | 364 kts | 135° |
| 2026-04-27 17:06 | 50.10369 | -135.60143 | 27282 ft | 363 kts | 135° |
| 2026-04-27 17:07 | 50.08592 | -135.57343 | 27287 ft | 363 kts | 135° |
| 2026-04-27 17:07 | 50.06815 | -135.54548 | 27283 ft | 363 kts | 136° |
| 2026-04-27 17:07 | 50.05060 | -135.51789 | 27286 ft | 364 kts | 135° |
| 2026-04-27 17:07 | 50.03280 | -135.48995 | 27286 ft | 364 kts | 135° |
| 2026-04-27 17:08 | 50.01495 | -135.46195 | 27286 ft | 365 kts | 135° |
| 2026-04-27 17:08 | 49.99710 | -135.43398 | 27286 ft | 365 kts | 135° |
| 2026-04-27 17:08 | 49.97925 | -135.40604 | 27286 ft | 364 kts | 135° |
| 2026-04-27 17:08 | 49.96142 | -135.37818 | 27286 ft | 364 kts | 135° |
| 2026-04-27 17:09 | 49.94353 | -135.35025 | 27285 ft | 364 kts | 135° |
| 2026-04-27 17:09 | 49.92564 | -135.32235 | 27287 ft | 364 kts | 135° |
| 2026-04-27 17:09 | 49.90775 | -135.29449 | 27283 ft | 364 kts | 135° |
| 2026-04-27 17:09 | 49.88985 | -135.26663 | 27283 ft | 364 kts | 135° |
| 2026-04-27 17:10 | 49.87196 | -135.23883 | 27280 ft | 364 kts | 135° |
| 2026-04-27 17:10 | 49.85405 | -135.21101 | 27284 ft | 365 kts | 135° |
| 2026-04-27 17:10 | 49.83608 | -135.18315 | 27281 ft | 365 kts | 135° |
| 2026-04-27 17:10 | 49.81809 | -135.15527 | 27281 ft | 366 kts | 135° |
| 2026-04-27 17:11 | 49.80010 | -135.12744 | 27281 ft | 365 kts | 135° |
| 2026-04-27 17:11 | 49.76420 | -135.07198 | 27283 ft | 365 kts | 135° |
| 2026-04-27 17:11 | 49.74619 | -135.04421 | 27283 ft | 365 kts | 135° |
| 2026-04-27 17:12 | 49.71019 | -134.98878 | 27283 ft | 365 kts | 135° |
| 2026-04-27 17:12 | 49.69221 | -134.96114 | 27288 ft | 364 kts | 135° |
| 2026-04-27 17:12 | 49.67423 | -134.93352 | 27281 ft | 365 kts | 135° |
| 2026-04-27 17:13 | 49.65618 | -134.90585 | 27281 ft | 366 kts | 135° |
| 2026-04-27 17:13 | 49.63813 | -134.87819 | 27280 ft | 366 kts | 135° |
| 2026-04-27 17:13 | 49.62004 | -134.85051 | 27281 ft | 366 kts | 135° |
| 2026-04-27 17:13 | 49.60202 | -134.82296 | 27277 ft | 365 kts | 135° |
| 2026-04-27 17:14 | 49.58398 | -134.79543 | 27279 ft | 365 kts | 135° |
| 2026-04-27 17:14 | 49.56618 | -134.76827 | 27284 ft | 365 kts | 135° |
| 2026-04-27 17:14 | 49.54812 | -134.74075 | 27285 ft | 366 kts | 135° |
| 2026-04-27 17:14 | 49.53001 | -134.71319 | 27281 ft | 366 kts | 135° |
| 2026-04-27 17:15 | 49.51194 | -134.68571 | 27281 ft | 366 kts | 135° |
| 2026-04-27 17:15 | 49.49381 | -134.65818 | 27283 ft | 366 kts | 135° |
| 2026-04-27 17:15 | 49.47571 | -134.63074 | 27282 ft | 366 kts | 135° |
| 2026-04-27 17:15 | 49.45760 | -134.60330 | 27287 ft | 366 kts | 135° |
| 2026-04-27 17:16 | 49.43948 | -134.57586 | 27286 ft | 365 kts | 136° |
| 2026-04-27 17:16 | 49.42137 | -134.54849 | 27283 ft | 365 kts | 136° |
| 2026-04-27 17:16 | 49.40335 | -134.52127 | 27284 ft | 366 kts | 136° |
| 2026-04-27 17:16 | 49.38522 | -134.49392 | 27283 ft | 366 kts | 136° |
| 2026-04-27 17:17 | 49.36703 | -134.46651 | 27282 ft | 365 kts | 136° |
| 2026-04-27 17:17 | 49.34889 | -134.43920 | 27284 ft | 365 kts | 136° |
| 2026-04-27 17:17 | 49.33072 | -134.41188 | 27286 ft | 366 kts | 135° |
| 2026-04-27 17:18 | 49.29429 | -134.35720 | 27284 ft | 366 kts | 135° |
| 2026-04-27 17:18 | 49.27609 | -134.32992 | 27283 ft | 366 kts | 135° |
| 2026-04-27 17:18 | 49.25787 | -134.30265 | 27281 ft | 366 kts | 135° |
| 2026-04-27 17:18 | 49.23966 | -134.27541 | 27281 ft | 366 kts | 135° |
| 2026-04-27 17:19 | 49.22141 | -134.24814 | 27284 ft | 366 kts | 135° |
| 2026-04-27 17:19 | 49.20320 | -134.22097 | 27283 ft | 366 kts | 135° |
| 2026-04-27 17:19 | 49.18498 | -134.19382 | 27283 ft | 366 kts | 135° |
| 2026-04-27 17:19 | 49.16672 | -134.16664 | 27284 ft | 366 kts | 135° |
| 2026-04-27 17:20 | 49.14847 | -134.13949 | 27287 ft | 367 kts | 135° |
| 2026-04-27 17:20 | 49.13042 | -134.11267 | 27283 ft | 367 kts | 135° |
| 2026-04-27 17:20 | 49.11214 | -134.08554 | 27280 ft | 366 kts | 135° |
| 2026-04-27 17:20 | 49.09386 | -134.05845 | 27281 ft | 366 kts | 135° |
| 2026-04-27 17:21 | 49.07552 | -134.03129 | 27283 ft | 366 kts | 135° |
| 2026-04-27 17:21 | 49.05725 | -134.00426 | 27286 ft | 366 kts | 135° |
| 2026-04-27 17:21 | 49.03901 | -133.97730 | 27283 ft | 366 kts | 135° |
| 2026-04-27 17:21 | 49.02071 | -133.95029 | 27286 ft | 366 kts | 135° |
| 2026-04-27 17:22 | 49.00237 | -133.92326 | 27285 ft | 366 kts | 135° |
| 2026-04-27 17:22 | 48.98404 | -133.89626 | 27287 ft | 366 kts | 135° |
| 2026-04-27 17:22 | 48.96571 | -133.86929 | 27287 ft | 366 kts | 135° |
| 2026-04-27 17:22 | 48.94740 | -133.84238 | 27286 ft | 366 kts | 135° |
| 2026-04-27 17:23 | 48.92908 | -133.81549 | 27282 ft | 366 kts | 135° |
| 2026-04-27 17:23 | 48.91069 | -133.78852 | 27282 ft | 366 kts | 135° |
| 2026-04-27 17:23 | 48.89236 | -133.76167 | 27283 ft | 366 kts | 135° |
| 2026-04-27 17:23 | 48.87401 | -133.73481 | 27281 ft | 366 kts | 135° |
| 2026-04-27 17:24 | 48.85570 | -133.70804 | 27286 ft | 366 kts | 135° |
| 2026-04-27 17:24 | 48.83734 | -133.68123 | 27283 ft | 366 kts | 135° |
| 2026-04-27 17:24 | 48.81895 | -133.65441 | 27283 ft | 366 kts | 135° |
| 2026-04-27 17:24 | 48.80057 | -133.62764 | 27289 ft | 367 kts | 134° |
| 2026-04-27 17:25 | 48.78216 | -133.60083 | 27284 ft | 367 kts | 135° |
| 2026-04-27 17:25 | 48.76398 | -133.57440 | 27280 ft | 367 kts | 135° |
| 2026-04-27 17:25 | 48.74532 | -133.54730 | 27279 ft | 367 kts | 135° |
| 2026-04-27 17:25 | 48.72715 | -133.52092 | 27281 ft | 367 kts | 135° |
| 2026-04-27 17:26 | 48.70874 | -133.49424 | 27281 ft | 367 kts | 135° |
| 2026-04-27 17:26 | 48.69038 | -133.46767 | 27280 ft | 367 kts | 135° |
| 2026-04-27 17:26 | 48.67193 | -133.44099 | 27281 ft | 367 kts | 135° |
| 2026-04-27 17:26 | 48.65347 | -133.41431 | 27279 ft | 367 kts | 135° |
| 2026-04-27 17:27 | 48.63504 | -133.38772 | 27280 ft | 367 kts | 135° |
| 2026-04-27 17:27 | 48.61656 | -133.36109 | 27286 ft | 367 kts | 134° |
| 2026-04-27 17:27 | 48.59801 | -133.33436 | 27279 ft | 368 kts | 134° |
| 2026-04-27 17:27 | 48.57948 | -133.30770 | 27281 ft | 367 kts | 134° |
| 2026-04-27 17:28 | 48.56099 | -133.28113 | 27278 ft | 367 kts | 134° |
| 2026-04-27 17:28 | 48.54248 | -133.25455 | 27279 ft | 367 kts | 134° |
| 2026-04-27 17:28 | 48.50551 | -133.20158 | 27281 ft | 367 kts | 134° |
| 2026-04-27 17:29 | 48.48695 | -133.17502 | 27280 ft | 367 kts | 134° |
| 2026-04-27 17:29 | 48.46842 | -133.14853 | 27280 ft | 367 kts | 134° |
| 2026-04-27 17:29 | 48.44987 | -133.12205 | 27289 ft | 368 kts | 134° |
| 2026-04-27 17:29 | 48.43128 | -133.09552 | 27281 ft | 369 kts | 134° |
| 2026-04-27 17:30 | 48.41264 | -133.06897 | 27277 ft | 368 kts | 134° |
| 2026-04-27 17:30 | 48.37543 | -133.01603 | 27281 ft | 368 kts | 134° |
| 2026-04-27 17:30 | 48.35680 | -132.98956 | 27280 ft | 368 kts | 134° |
| 2026-04-27 17:31 | 48.33821 | -132.96319 | 27280 ft | 368 kts | 134° |
| 2026-04-27 17:31 | 48.31964 | -132.93687 | 27280 ft | 368 kts | 134° |
| 2026-04-27 17:31 | 48.30099 | -132.91048 | 27280 ft | 368 kts | 134° |
| 2026-04-27 17:31 | 48.28237 | -132.88413 | 27268 ft | 368 kts | 134° |
| 2026-04-27 17:32 | 48.26372 | -132.85780 | 27279 ft | 368 kts | 134° |
| 2026-04-27 17:32 | 48.22647 | -132.80525 | 27277 ft | 368 kts | 134° |
| 2026-04-27 17:32 | 48.20779 | -132.77893 | 27277 ft | 368 kts | 134° |
| 2026-04-27 17:33 | 48.18914 | -132.75269 | 27278 ft | 368 kts | 134° |
| 2026-04-27 17:33 | 48.17073 | -132.72682 | 27277 ft | 368 kts | 134° |
| 2026-04-27 17:33 | 48.15206 | -132.70060 | 27277 ft | 368 kts | 134° |
| 2026-04-27 17:33 | 48.13337 | -132.67439 | 27275 ft | 368 kts | 134° |
| 2026-04-27 17:34 | 48.11467 | -132.64819 | 27274 ft | 368 kts | 134° |
| 2026-04-27 17:34 | 48.09597 | -132.62202 | 27286 ft | 368 kts | 133° |
| 2026-04-27 17:34 | 48.07729 | -132.59591 | 27275 ft | 368 kts | 133° |
| 2026-04-27 17:34 | 48.05857 | -132.56975 | 27268 ft | 368 kts | 133° |
| 2026-04-27 17:35 | 48.03985 | -132.54363 | 27269 ft | 368 kts | 133° |
| 2026-04-27 17:35 | 48.02112 | -132.51753 | 27278 ft | 368 kts | 134° |
| 2026-04-27 17:35 | 48.00238 | -132.49145 | 27278 ft | 368 kts | 134° |
| 2026-04-27 17:35 | 47.98366 | -132.46540 | 27275 ft | 368 kts | 134° |
| 2026-04-27 17:36 | 47.96487 | -132.43930 | 27274 ft | 368 kts | 134° |
| 2026-04-27 17:36 | 47.94615 | -132.41332 | 27275 ft | 368 kts | 134° |
| 2026-04-27 17:36 | 47.92739 | -132.38731 | 27281 ft | 368 kts | 134° |
| 2026-04-27 17:36 | 47.90868 | -132.36140 | 27275 ft | 368 kts | 133° |
| 2026-04-27 17:37 | 47.88997 | -132.33550 | 27271 ft | 368 kts | 133° |
| 2026-04-27 17:37 | 47.87142 | -132.30987 | 27272 ft | 368 kts | 133° |
| 2026-04-27 17:37 | 47.85266 | -132.28396 | 27272 ft | 368 kts | 133° |
| 2026-04-27 17:37 | 47.83390 | -132.25808 | 27272 ft | 368 kts | 133° |
| 2026-04-27 17:38 | 47.81513 | -132.23222 | 27271 ft | 368 kts | 133° |
| 2026-04-27 17:38 | 47.79634 | -132.20635 | 27272 ft | 368 kts | 133° |
| 2026-04-27 17:38 | 47.77753 | -132.18050 | 27272 ft | 368 kts | 133° |
| 2026-04-27 17:38 | 47.75873 | -132.15467 | 27272 ft | 368 kts | 133° |
| 2026-04-27 17:39 | 47.73993 | -132.12886 | 27275 ft | 368 kts | 133° |
| 2026-04-27 17:39 | 47.72112 | -132.10308 | 27275 ft | 368 kts | 133° |
| 2026-04-27 17:39 | 47.70232 | -132.07733 | 27272 ft | 368 kts | 133° |
| 2026-04-27 17:39 | 47.68350 | -132.05159 | 27272 ft | 368 kts | 133° |
| 2026-04-27 17:40 | 47.66463 | -132.02581 | 27271 ft | 368 kts | 133° |
| 2026-04-27 17:40 | 47.64579 | -132.00009 | 27267 ft | 368 kts | 133° |
| 2026-04-27 17:40 | 47.62699 | -131.97444 | 27267 ft | 368 kts | 133° |
| 2026-04-27 17:40 | 47.60814 | -131.94876 | 27267 ft | 368 kts | 134° |
| 2026-04-27 17:41 | 47.58928 | -131.92310 | 27267 ft | 368 kts | 134° |
| 2026-04-27 17:41 | 47.57043 | -131.89747 | 27277 ft | 368 kts | 133° |
| 2026-04-27 17:41 | 47.55157 | -131.87185 | 27266 ft | 368 kts | 133° |
| 2026-04-27 17:41 | 47.53271 | -131.84627 | 27266 ft | 368 kts | 133° |
| 2026-04-27 17:42 | 47.51389 | -131.82075 | 27274 ft | 368 kts | 133° |
| 2026-04-27 17:42 | 47.49503 | -131.79522 | 27272 ft | 368 kts | 133° |
| 2026-04-27 17:42 | 47.47613 | -131.76966 | 27272 ft | 368 kts | 133° |
| 2026-04-27 17:42 | 47.45726 | -131.74416 | 27272 ft | 368 kts | 133° |
| 2026-04-27 17:43 | 47.43837 | -131.71865 | 27267 ft | 368 kts | 133° |
| 2026-04-27 17:43 | 47.41946 | -131.69316 | 27267 ft | 368 kts | 133° |
| 2026-04-27 17:43 | 47.40052 | -131.66765 | 27281 ft | 368 kts | 133° |
| 2026-04-27 17:43 | 47.38188 | -131.64257 | 27266 ft | 367 kts | 133° |
| 2026-04-27 17:44 | 47.36304 | -131.61723 | 27264 ft | 367 kts | 133° |
| 2026-04-27 17:44 | 47.34415 | -131.59186 | 27265 ft | 367 kts | 133° |
| 2026-04-27 17:44 | 47.32503 | -131.56620 | 27263 ft | 367 kts | 133° |
| 2026-04-27 17:44 | 47.30641 | -131.54124 | 27265 ft | 367 kts | 133° |
| 2026-04-27 17:45 | 47.28751 | -131.51594 | 27261 ft | 367 kts | 133° |
| 2026-04-27 17:45 | 47.26860 | -131.49065 | 27262 ft | 367 kts | 133° |
| 2026-04-27 17:45 | 47.24971 | -131.46540 | 27261 ft | 367 kts | 133° |
| 2026-04-27 17:45 | 47.23077 | -131.44012 | 27278 ft | 367 kts | 133° |
| 2026-04-27 17:46 | 47.21186 | -131.41491 | 27263 ft | 367 kts | 133° |
| 2026-04-27 17:46 | 47.19293 | -131.38968 | 27257 ft | 367 kts | 133° |
| 2026-04-27 17:46 | 47.18036 | -131.37296 | 27258 ft | 367 kts | 133° |
| 2026-04-27 17:46 | 47.16147 | -131.34783 | 27259 ft | 367 kts | 133° |
| 2026-04-27 17:47 | 47.14253 | -131.32266 | 27259 ft | 367 kts | 133° |
| 2026-04-27 17:47 | 47.12970 | -131.30563 | 27259 ft | 367 kts | 133° |
| 2026-04-27 17:47 | 47.10464 | -131.27239 | 27259 ft | 367 kts | 133° |
| 2026-04-27 17:47 | 47.08567 | -131.24727 | 27255 ft | 367 kts | 133° |
| 2026-04-27 17:48 | 47.06669 | -131.22216 | 27257 ft | 367 kts | 133° |
| 2026-04-27 17:48 | 47.04773 | -131.19709 | 27271 ft | 367 kts | 132° |
| 2026-04-27 17:48 | 47.02874 | -131.17202 | 27259 ft | 367 kts | 132° |
| 2026-04-27 17:48 | 47.00977 | -131.14699 | 27238 ft | 367 kts | 133° |
| 2026-04-27 17:49 | 46.99082 | -131.12202 | 27257 ft | 366 kts | 133° |
| 2026-04-27 17:49 | 46.97185 | -131.09703 | 27264 ft | 367 kts | 133° |
| 2026-04-27 17:49 | 46.95304 | -131.07227 | 27259 ft | 367 kts | 133° |
| 2026-04-27 17:49 | 46.93404 | -131.04731 | 27259 ft | 366 kts | 133° |
| 2026-04-27 17:50 | 46.91507 | -131.02241 | 27256 ft | 367 kts | 133° |
| 2026-04-27 17:50 | 46.87706 | -130.97258 | 27270 ft | 367 kts | 132° |
| 2026-04-27 17:50 | 46.85807 | -130.94772 | 27257 ft | 367 kts | 132° |
| 2026-04-27 17:51 | 46.83909 | -130.92290 | 27257 ft | 366 kts | 132° |
| 2026-04-27 17:51 | 46.82006 | -130.89805 | 27258 ft | 367 kts | 132° |
| 2026-04-27 17:51 | 46.80103 | -130.87321 | 27252 ft | 367 kts | 132° |
| 2026-04-27 17:51 | 46.78202 | -130.84843 | 27254 ft | 367 kts | 132° |
| 2026-04-27 17:52 | 46.76321 | -130.82393 | 27253 ft | 367 kts | 132° |
| 2026-04-27 17:52 | 46.74420 | -130.79919 | 27251 ft | 367 kts | 132° |
| 2026-04-27 17:52 | 46.72521 | -130.77451 | 27253 ft | 367 kts | 133° |
| 2026-04-27 17:52 | 46.70614 | -130.74975 | 27264 ft | 367 kts | 132° |
| 2026-04-27 17:53 | 46.68706 | -130.72499 | 27245 ft | 367 kts | 132° |
| 2026-04-27 17:53 | 46.66800 | -130.70029 | 27260 ft | 367 kts | 132° |
| 2026-04-27 17:53 | 46.64889 | -130.67555 | 27249 ft | 367 kts | 132° |
| 2026-04-27 17:53 | 46.62979 | -130.65084 | 27250 ft | 367 kts | 132° |
| 2026-04-27 17:54 | 46.61074 | -130.62622 | 27242 ft | 367 kts | 132° |
| 2026-04-27 17:54 | 46.59162 | -130.60154 | 27244 ft | 367 kts | 132° |
| 2026-04-27 17:54 | 46.57253 | -130.57692 | 27244 ft | 367 kts | 132° |
| 2026-04-27 17:54 | 46.55341 | -130.55229 | 27248 ft | 367 kts | 132° |
| 2026-04-27 17:55 | 46.53436 | -130.52777 | 27257 ft | 368 kts | 132° |
| 2026-04-27 17:55 | 46.51518 | -130.50310 | 27249 ft | 368 kts | 132° |
| 2026-04-27 17:55 | 46.49604 | -130.47852 | 27249 ft | 368 kts | 132° |
| 2026-04-27 17:55 | 46.47689 | -130.45393 | 27251 ft | 368 kts | 132° |
| 2026-04-27 17:56 | 46.45798 | -130.42969 | 27246 ft | 368 kts | 132° |
| 2026-04-27 17:56 | 46.43878 | -130.40510 | 27248 ft | 368 kts | 132° |
| 2026-04-27 17:56 | 46.41961 | -130.38056 | 27246 ft | 368 kts | 132° |
| 2026-04-27 17:56 | 46.40043 | -130.35606 | 27244 ft | 368 kts | 132° |
| 2026-04-27 17:57 | 46.38120 | -130.33150 | 27244 ft | 368 kts | 132° |
| 2026-04-27 17:57 | 46.36199 | -130.30698 | 27259 ft | 369 kts | 132° |
| 2026-04-27 17:57 | 46.34272 | -130.28243 | 27246 ft | 368 kts | 132° |
| 2026-04-27 17:57 | 46.32358 | -130.25805 | 27242 ft | 368 kts | 132° |
| 2026-04-27 17:58 | 46.30433 | -130.23357 | 27246 ft | 369 kts | 132° |
| 2026-04-27 17:58 | 46.28509 | -130.20911 | 27245 ft | 369 kts | 132° |
| 2026-04-27 17:58 | 46.26582 | -130.18465 | 27240 ft | 369 kts | 132° |
| 2026-04-27 17:58 | 46.24653 | -130.16018 | 27239 ft | 369 kts | 132° |
| 2026-04-27 17:59 | 46.22725 | -130.13575 | 27239 ft | 369 kts | 132° |
| 2026-04-27 17:59 | 46.20798 | -130.11135 | 27239 ft | 369 kts | 132° |
| 2026-04-27 17:59 | 46.18869 | -130.08696 | 27255 ft | 370 kts | 131° |
| 2026-04-27 17:59 | 46.16930 | -130.06245 | 27234 ft | 370 kts | 132° |
| 2026-04-27 18:00 | 46.14991 | -130.03799 | 27239 ft | 370 kts | 132° |
| 2026-04-27 18:00 | 46.13058 | -130.01361 | 27238 ft | 370 kts | 132° |
| 2026-04-27 18:00 | 46.11121 | -129.98921 | 27240 ft | 370 kts | 132° |
| 2026-04-27 18:00 | 46.09181 | -129.96479 | 27239 ft | 370 kts | 132° |
| 2026-04-27 18:01 | 46.07241 | -129.94039 | 27238 ft | 370 kts | 132° |
| 2026-04-27 18:01 | 46.05303 | -129.91606 | 27234 ft | 370 kts | 132° |
| 2026-04-27 18:01 | 46.03362 | -129.89171 | 27235 ft | 370 kts | 132° |
| 2026-04-27 18:01 | 46.01422 | -129.86738 | 27242 ft | 370 kts | 132° |
| 2026-04-27 18:02 | 45.99477 | -129.84302 | 27236 ft | 370 kts | 132° |
| 2026-04-27 18:02 | 45.97539 | -129.81876 | 27239 ft | 370 kts | 132° |
| 2026-04-27 18:02 | 45.95603 | -129.79457 | 27237 ft | 370 kts | 132° |
| 2026-04-27 18:02 | 45.93661 | -129.77032 | 27236 ft | 370 kts | 132° |
| 2026-04-27 18:03 | 45.91744 | -129.74640 | 27241 ft | 370 kts | 132° |
| 2026-04-27 18:03 | 45.89799 | -129.72215 | 27239 ft | 370 kts | 132° |
| 2026-04-27 18:03 | 45.87859 | -129.69800 | 27239 ft | 370 kts | 132° |
| 2026-04-27 18:03 | 45.85913 | -129.67378 | 27253 ft | 371 kts | 132° |
| 2026-04-27 18:04 | 45.83960 | -129.64951 | 27238 ft | 372 kts | 132° |
| 2026-04-27 18:04 | 45.82009 | -129.62528 | 27229 ft | 371 kts | 132° |
| 2026-04-27 18:04 | 45.80057 | -129.60107 | 27242 ft | 371 kts | 132° |
| 2026-04-27 18:04 | 45.78100 | -129.57682 | 27227 ft | 371 kts | 132° |
| 2026-04-27 18:05 | 45.76150 | -129.55269 | 27216 ft | 370 kts | 132° |
| 2026-04-27 18:05 | 45.74196 | -129.52853 | 27232 ft | 370 kts | 132° |
| 2026-04-27 18:05 | 45.72246 | -129.50443 | 27229 ft | 371 kts | 132° |
| 2026-04-27 18:05 | 45.70293 | -129.48031 | 27228 ft | 371 kts | 132° |
| 2026-04-27 18:06 | 45.68340 | -129.45622 | 27244 ft | 372 kts | 132° |
| 2026-04-27 18:06 | 45.66375 | -129.43200 | 27224 ft | 372 kts | 132° |
| 2026-04-27 18:06 | 45.64416 | -129.40790 | 27229 ft | 372 kts | 132° |
| 2026-04-27 18:06 | 45.62453 | -129.38376 | 27239 ft | 372 kts | 132° |
| 2026-04-27 18:07 | 45.60489 | -129.35963 | 27223 ft | 372 kts | 132° |
| 2026-04-27 18:07 | 45.58523 | -129.33550 | 27225 ft | 372 kts | 133° |
| 2026-04-27 18:07 | 45.56564 | -129.31149 | 27217 ft | 372 kts | 133° |
| 2026-04-27 18:07 | 45.54598 | -129.28739 | 27223 ft | 372 kts | 133° |
| 2026-04-27 18:08 | 45.52669 | -129.26379 | 27242 ft | 372 kts | 133° |
| 2026-04-27 18:08 | 45.50701 | -129.23972 | 27227 ft | 373 kts | 133° |
| 2026-04-27 18:08 | 45.48730 | -129.21565 | 27234 ft | 373 kts | 133° |
| 2026-04-27 18:08 | 45.46761 | -129.19162 | 27228 ft | 373 kts | 133° |
| 2026-04-27 18:09 | 45.44791 | -129.16760 | 27216 ft | 373 kts | 133° |
| 2026-04-27 18:09 | 45.42817 | -129.14356 | 27229 ft | 373 kts | 133° |
| 2026-04-27 18:09 | 45.40844 | -129.11955 | 27228 ft | 373 kts | 133° |
| 2026-04-27 18:09 | 45.38874 | -129.09560 | 27217 ft | 373 kts | 133° |
| 2026-04-27 18:10 | 45.36905 | -129.07169 | 27220 ft | 373 kts | 133° |
| 2026-04-27 18:10 | 45.34929 | -129.04771 | 27231 ft | 373 kts | 133° |
| 2026-04-27 18:10 | 45.32954 | -129.02377 | 27224 ft | 373 kts | 133° |
| 2026-04-27 18:10 | 45.30992 | -129.00001 | 27223 ft | 373 kts | 133° |
| 2026-04-27 18:11 | 45.29015 | -128.97609 | 27222 ft | 373 kts | 133° |
| 2026-04-27 18:11 | 45.27040 | -128.95222 | 27224 ft | 373 kts | 133° |
| 2026-04-27 18:11 | 45.25063 | -128.92834 | 27220 ft | 373 kts | 133° |
| 2026-04-27 18:11 | 45.23085 | -128.90448 | 27220 ft | 373 kts | 133° |
| 2026-04-27 18:12 | 45.21112 | -128.88069 | 27220 ft | 373 kts | 133° |
| 2026-04-27 18:12 | 45.19133 | -128.85687 | 27251 ft | 374 kts | 132° |
| 2026-04-27 18:12 | 45.17142 | -128.83290 | 27224 ft | 376 kts | 133° |
| 2026-04-27 18:12 | 45.15152 | -128.80898 | 27218 ft | 375 kts | 133° |
| 2026-04-27 18:13 | 45.13161 | -128.78508 | 27218 ft | 375 kts | 133° |
| 2026-04-27 18:13 | 45.11174 | -128.76125 | 27221 ft | 375 kts | 133° |
| 2026-04-27 18:13 | 45.09209 | -128.73769 | 27221 ft | 375 kts | 133° |
| 2026-04-27 18:13 | 45.07215 | -128.71382 | 27220 ft | 375 kts | 133° |
| 2026-04-27 18:14 | 45.05220 | -128.68996 | 27218 ft | 375 kts | 133° |
| 2026-04-27 18:14 | 45.03231 | -128.66618 | 27218 ft | 375 kts | 133° |
| 2026-04-27 18:14 | 45.01225 | -128.64222 | 27225 ft | 378 kts | 132° |
| 2026-04-27 18:14 | 44.99207 | -128.61815 | 27216 ft | 379 kts | 133° |
| 2026-04-27 18:15 | 44.97195 | -128.59419 | 27217 ft | 378 kts | 133° |
| 2026-04-27 18:15 | 44.95184 | -128.57025 | 27218 ft | 378 kts | 133° |
| 2026-04-27 18:15 | 44.93171 | -128.54631 | 27218 ft | 378 kts | 133° |
| 2026-04-27 18:15 | 44.91158 | -128.52238 | 27218 ft | 378 kts | 133° |
| 2026-04-27 18:16 | 44.89143 | -128.49846 | 27215 ft | 378 kts | 133° |
| 2026-04-27 18:16 | 44.87129 | -128.47458 | 27215 ft | 378 kts | 133° |
| 2026-04-27 18:16 | 44.85113 | -128.45068 | 27233 ft | 381 kts | 132° |
| 2026-04-27 18:16 | 44.83076 | -128.42655 | 27213 ft | 384 kts | 132° |
| 2026-04-27 18:17 | 44.81027 | -128.40232 | 27213 ft | 383 kts | 132° |
| 2026-04-27 18:17 | 44.78988 | -128.37825 | 27212 ft | 383 kts | 132° |
| 2026-04-27 18:17 | 44.76974 | -128.35446 | 27214 ft | 383 kts | 132° |
| 2026-04-27 18:17 | 44.74904 | -128.33006 | 27212 ft | 383 kts | 133° |
| 2026-04-27 18:18 | 44.72867 | -128.30606 | 27217 ft | 383 kts | 133° |
| 2026-04-27 18:18 | 44.70825 | -128.28203 | 27215 ft | 383 kts | 133° |
| 2026-04-27 18:18 | 44.68777 | -128.25794 | 27235 ft | 385 kts | 132° |
| 2026-04-27 18:18 | 44.66718 | -128.23374 | 27211 ft | 386 kts | 132° |
| 2026-04-27 18:19 | 44.64684 | -128.20987 | 27207 ft | 386 kts | 132° |
| 2026-04-27 18:19 | 44.62625 | -128.18573 | 27210 ft | 386 kts | 132° |
| 2026-04-27 18:19 | 44.60569 | -128.16165 | 27210 ft | 386 kts | 132° |
| 2026-04-27 18:19 | 44.58478 | -128.13718 | 27207 ft | 386 kts | 132° |
| 2026-04-27 18:20 | 44.56415 | -128.11306 | 27163 ft | 386 kts | 133° |
| 2026-04-27 18:20 | 44.54399 | -128.08959 | 27206 ft | 381 kts | 133° |
| 2026-04-27 18:20 | 44.52357 | -128.06574 | 27242 ft | 383 kts | 133° |
| 2026-04-27 18:20 | 44.50299 | -128.04168 | 27208 ft | 387 kts | 133° |
| 2026-04-27 18:21 | 44.48242 | -128.01771 | 27213 ft | 387 kts | 133° |
| 2026-04-27 18:21 | 44.46169 | -127.99361 | 27210 ft | 387 kts | 133° |
| 2026-04-27 18:21 | 44.44099 | -127.96954 | 27210 ft | 387 kts | 133° |
| 2026-04-27 18:21 | 44.42030 | -127.94551 | 27205 ft | 387 kts | 133° |
| 2026-04-27 18:22 | 44.39960 | -127.92149 | 27206 ft | 387 kts | 133° |
| 2026-04-27 18:22 | 44.37890 | -127.89750 | 27212 ft | 387 kts | 133° |
| 2026-04-27 18:22 | 44.35814 | -127.87346 | 27203 ft | 387 kts | 133° |
| 2026-04-27 18:22 | 44.33746 | -127.84953 | 27209 ft | 387 kts | 133° |
| 2026-04-27 18:23 | 44.31670 | -127.82553 | 27207 ft | 387 kts | 133° |
| 2026-04-27 18:23 | 44.29597 | -127.80159 | 27209 ft | 387 kts | 133° |
| 2026-04-27 18:23 | 44.27536 | -127.77781 | 27202 ft | 387 kts | 133° |
| 2026-04-27 18:23 | 44.25459 | -127.75387 | 27206 ft | 387 kts | 133° |
| 2026-04-27 18:24 | 44.23387 | -127.73002 | 27209 ft | 387 kts | 133° |
| 2026-04-27 18:24 | 44.21313 | -127.70616 | 27202 ft | 387 kts | 133° |
| 2026-04-27 18:24 | 44.19230 | -127.68220 | 27218 ft | 389 kts | 134° |
| 2026-04-27 18:24 | 44.17142 | -127.65823 | 27205 ft | 389 kts | 134° |
| 2026-04-27 18:25 | 44.15053 | -127.63428 | 27204 ft | 389 kts | 134° |
| 2026-04-27 18:25 | 44.12967 | -127.61037 | 27203 ft | 389 kts | 134° |
| 2026-04-27 18:25 | 44.10870 | -127.58636 | 27201 ft | 389 kts | 134° |
| 2026-04-27 18:25 | 44.08796 | -127.56263 | 27206 ft | 389 kts | 134° |
| 2026-04-27 18:26 | 44.06712 | -127.53882 | 27201 ft | 389 kts | 134° |
| 2026-04-27 18:26 | 44.04618 | -127.51492 | 27239 ft | 389 kts | 135° |
| 2026-04-27 18:26 | 44.02525 | -127.49104 | 27215 ft | 389 kts | 135° |
| 2026-04-27 18:26 | 44.00431 | -127.46718 | 27202 ft | 389 kts | 135° |
| 2026-04-27 18:27 | 43.98366 | -127.44367 | 27213 ft | 389 kts | 135° |
| 2026-04-27 18:27 | 43.96272 | -127.41985 | 27206 ft | 389 kts | 135° |
| 2026-04-27 18:27 | 43.94182 | -127.39610 | 27201 ft | 389 kts | 135° |
| 2026-04-27 18:27 | 43.92085 | -127.37230 | 27210 ft | 389 kts | 135° |
| 2026-04-27 18:28 | 43.89985 | -127.34847 | 27200 ft | 389 kts | 135° |
| 2026-04-27 18:28 | 43.87892 | -127.32476 | 27213 ft | 388 kts | 135° |
| 2026-04-27 18:28 | 43.85806 | -127.30117 | 27205 ft | 387 kts | 135° |
| 2026-04-27 18:28 | 43.83734 | -127.27772 | 27198 ft | 387 kts | 135° |
| 2026-04-27 18:29 | 43.81649 | -127.25415 | 27200 ft | 387 kts | 135° |
| 2026-04-27 18:29 | 43.79571 | -127.23069 | 27201 ft | 387 kts | 135° |
| 2026-04-27 18:29 | 43.77473 | -127.20703 | 27205 ft | 387 kts | 135° |
| 2026-04-27 18:29 | 43.75385 | -127.18350 | 27203 ft | 387 kts | 135° |
| 2026-04-27 18:30 | 43.73300 | -127.16003 | 27201 ft | 387 kts | 135° |
| 2026-04-27 18:30 | 43.71211 | -127.13652 | 27215 ft | 386 kts | 136° |
| 2026-04-27 18:30 | 43.69140 | -127.11326 | 27200 ft | 384 kts | 136° |
| 2026-04-27 18:30 | 43.67059 | -127.08990 | 27196 ft | 385 kts | 136° |
| 2026-04-27 18:31 | 43.64982 | -127.06660 | 27197 ft | 385 kts | 136° |
| 2026-04-27 18:31 | 43.62914 | -127.04343 | 27194 ft | 385 kts | 136° |
| 2026-04-27 18:31 | 43.60833 | -127.02013 | 27196 ft | 385 kts | 136° |
| 2026-04-27 18:31 | 43.58752 | -126.99686 | 27197 ft | 385 kts | 136° |
| 2026-04-27 18:32 | 43.56679 | -126.97369 | 27196 ft | 385 kts | 136° |
| 2026-04-27 18:32 | 43.54636 | -126.95089 | 27205 ft | 381 kts | 137° |
| 2026-04-27 18:32 | 43.52580 | -126.92796 | 27194 ft | 379 kts | 137° |
| 2026-04-27 18:32 | 43.50527 | -126.90508 | 27196 ft | 380 kts | 137° |
| 2026-04-27 18:33 | 43.48468 | -126.88214 | 27197 ft | 380 kts | 137° |
| 2026-04-27 18:33 | 43.46410 | -126.85925 | 27195 ft | 380 kts | 137° |
| 2026-04-27 18:33 | 43.44353 | -126.83639 | 27196 ft | 380 kts | 137° |
| 2026-04-27 18:33 | 43.42308 | -126.81368 | 27194 ft | 380 kts | 137° |
| 2026-04-27 18:34 | 43.40259 | -126.79094 | 27200 ft | 380 kts | 138° |
| 2026-04-27 18:34 | 43.38869 | -126.77553 | 27155 ft | 379 kts | 138° |
| 2026-04-27 18:34 | 43.36837 | -126.75300 | 27180 ft | 382 kts | 138° |
| 2026-04-27 18:34 | 43.34733 | -126.72972 | 27199 ft | 385 kts | 138° |
| 2026-04-27 18:35 | 43.32606 | -126.70729 | 27192 ft | 390 kts | 147° |
| 2026-04-27 18:35 | 43.30262 | -126.68856 | 27181 ft | 389 kts | 139° |
| 2026-04-27 18:35 | 43.28285 | -126.66436 | 27194 ft | 386 kts | 134° |
| 2026-04-27 18:35 | 43.26243 | -126.64025 | 27194 ft | 387 kts | 137° |
| 2026-04-27 18:36 | 43.24136 | -126.61719 | 27204 ft | 388 kts | 139° |
| 2026-04-27 18:36 | 43.22018 | -126.59470 | 27194 ft | 386 kts | 140° |
| 2026-04-27 18:36 | 43.19891 | -126.57236 | 27194 ft | 386 kts | 140° |
| 2026-04-27 18:36 | 43.17755 | -126.55003 | 27194 ft | 386 kts | 140° |
| 2026-04-27 18:37 | 43.15617 | -126.52772 | 27194 ft | 386 kts | 140° |
| 2026-04-27 18:37 | 43.13479 | -126.50543 | 27194 ft | 386 kts | 140° |
| 2026-04-27 18:37 | 43.11342 | -126.48318 | 27192 ft | 386 kts | 140° |
| 2026-04-27 18:37 | 43.09204 | -126.46094 | 27191 ft | 386 kts | 140° |
| 2026-04-27 18:38 | 43.07069 | -126.43875 | 27196 ft | 384 kts | 141° |
| 2026-04-27 18:38 | 43.04956 | -126.41682 | 27187 ft | 381 kts | 141° |
| 2026-04-27 18:38 | 43.02836 | -126.39483 | 27189 ft | 382 kts | 141° |
| 2026-04-27 18:38 | 43.00717 | -126.37286 | 27188 ft | 382 kts | 141° |
| 2026-04-27 18:39 | 42.98600 | -126.35093 | 27189 ft | 382 kts | 141° |
| 2026-04-27 18:39 | 42.96487 | -126.32908 | 27187 ft | 382 kts | 141° |
| 2026-04-27 18:39 | 42.94368 | -126.30718 | 27189 ft | 382 kts | 141° |
| 2026-04-27 18:39 | 42.92247 | -126.28528 | 27193 ft | 382 kts | 141° |
| 2026-04-27 18:40 | 42.90136 | -126.26350 | 27187 ft | 380 kts | 142° |
| 2026-04-27 18:40 | 42.88026 | -126.24175 | 27188 ft | 380 kts | 142° |
| 2026-04-27 18:40 | 42.85918 | -126.22005 | 27188 ft | 380 kts | 142° |
| 2026-04-27 18:40 | 42.83805 | -126.19831 | 27188 ft | 380 kts | 142° |
| 2026-04-27 18:41 | 42.81694 | -126.17661 | 27190 ft | 380 kts | 142° |
| 2026-04-27 18:41 | 42.79581 | -126.15490 | 27185 ft | 380 kts | 142° |
| 2026-04-27 18:41 | 42.77465 | -126.13319 | 27188 ft | 380 kts | 142° |
| 2026-04-27 18:41 | 42.75352 | -126.11153 | 27188 ft | 380 kts | 142° |
| 2026-04-27 18:42 | 42.73277 | -126.09028 | 27186 ft | 380 kts | 142° |
| 2026-04-27 18:42 | 42.71849 | -126.07566 | 27187 ft | 380 kts | 142° |
| 2026-04-27 18:42 | 42.69051 | -126.04705 | 27188 ft | 380 kts | 142° |
| 2026-04-27 18:42 | 42.66937 | -126.02546 | 27185 ft | 380 kts | 142° |
| 2026-04-27 18:43 | 42.64822 | -126.00386 | 27185 ft | 380 kts | 142° |
| 2026-04-27 18:43 | 42.62708 | -125.98231 | 27185 ft | 380 kts | 142° |
| 2026-04-27 18:43 | 42.60592 | -125.96074 | 27181 ft | 380 kts | 143° |
| 2026-04-27 18:43 | 42.58482 | -125.93926 | 27185 ft | 379 kts | 143° |
| 2026-04-27 18:44 | 42.56371 | -125.91780 | 27186 ft | 379 kts | 143° |
| 2026-04-27 18:44 | 42.54265 | -125.89640 | 27185 ft | 379 kts | 143° |
| 2026-04-27 18:44 | 42.52156 | -125.87498 | 27186 ft | 379 kts | 143° |
| 2026-04-27 18:44 | 42.50043 | -125.85355 | 27185 ft | 379 kts | 143° |
| 2026-04-27 18:45 | 42.47928 | -125.83212 | 27184 ft | 379 kts | 143° |
| 2026-04-27 18:45 | 42.45817 | -125.81074 | 27182 ft | 379 kts | 143° |
| 2026-04-27 18:45 | 42.43704 | -125.78935 | 27188 ft | 377 kts | 143° |
| 2026-04-27 18:45 | 42.41610 | -125.76818 | 27181 ft | 375 kts | 143° |
| 2026-04-27 18:46 | 42.39519 | -125.74707 | 27180 ft | 375 kts | 143° |
| 2026-04-27 18:46 | 42.37430 | -125.72597 | 27152 ft | 376 kts | 143° |
| 2026-04-27 18:46 | 42.35324 | -125.70472 | 27174 ft | 379 kts | 143° |
| 2026-04-27 18:46 | 42.33199 | -125.68334 | 27184 ft | 382 kts | 143° |
| 2026-04-27 18:47 | 42.31057 | -125.66178 | 27186 ft | 384 kts | 143° |
| 2026-04-27 18:47 | 42.28913 | -125.64023 | 27180 ft | 383 kts | 143° |
| 2026-04-27 18:47 | 42.26780 | -125.61881 | 27179 ft | 381 kts | 143° |
| 2026-04-27 18:47 | 42.24658 | -125.59750 | 27179 ft | 381 kts | 143° |
| 2026-04-27 18:48 | 42.22528 | -125.57613 | 27176 ft | 381 kts | 143° |
| 2026-04-27 18:48 | 42.20399 | -125.55480 | 27183 ft | 381 kts | 143° |
| 2026-04-27 18:48 | 42.18303 | -125.53381 | 27178 ft | 381 kts | 143° |
| 2026-04-27 18:48 | 42.16175 | -125.51252 | 27177 ft | 381 kts | 143° |
| 2026-04-27 18:49 | 42.14043 | -125.49121 | 27176 ft | 381 kts | 143° |
| 2026-04-27 18:49 | 42.11916 | -125.46996 | 27175 ft | 379 kts | 144° |
| 2026-04-27 18:49 | 42.09804 | -125.44888 | 27178 ft | 378 kts | 144° |
| 2026-04-27 18:49 | 42.07689 | -125.42779 | 27178 ft | 378 kts | 144° |
| 2026-04-27 18:50 | 42.05575 | -125.40673 | 27179 ft | 378 kts | 144° |
| 2026-04-27 18:50 | 42.03454 | -125.38563 | 27176 ft | 378 kts | 144° |
| 2026-04-27 18:50 | 42.01342 | -125.36462 | 27178 ft | 378 kts | 144° |
| 2026-04-27 18:50 | 41.99224 | -125.34358 | 27176 ft | 378 kts | 144° |
| 2026-04-27 18:51 | 41.97108 | -125.32257 | 27172 ft | 378 kts | 144° |
| 2026-04-27 18:51 | 41.94993 | -125.30159 | 27177 ft | 377 kts | 144° |
| 2026-04-27 18:51 | 41.92882 | -125.28067 | 27177 ft | 377 kts | 144° |
| 2026-04-27 18:51 | 41.90766 | -125.25972 | 27172 ft | 377 kts | 144° |
| 2026-04-27 18:52 | 41.88657 | -125.23885 | 27179 ft | 377 kts | 144° |
| 2026-04-27 18:52 | 41.86544 | -125.21796 | 27180 ft | 377 kts | 144° |
| 2026-04-27 18:52 | 41.84441 | -125.19719 | 27174 ft | 377 kts | 144° |
| 2026-04-27 18:53 | 41.80222 | -125.15557 | 27172 ft | 374 kts | 144° |
| 2026-04-27 18:53 | 41.78125 | -125.13491 | 27173 ft | 374 kts | 144° |
| 2026-04-27 18:53 | 41.76026 | -125.11425 | 27173 ft | 375 kts | 144° |
| 2026-04-27 18:53 | 41.73924 | -125.09357 | 27168 ft | 375 kts | 144° |
| 2026-04-27 18:54 | 41.71824 | -125.07294 | 27176 ft | 375 kts | 144° |
| 2026-04-27 18:54 | 41.69720 | -125.05228 | 27170 ft | 375 kts | 144° |
| 2026-04-27 18:54 | 41.67615 | -125.03163 | 27175 ft | 375 kts | 144° |
| 2026-04-27 18:54 | 41.65543 | -125.01131 | 27171 ft | 373 kts | 144° |
| 2026-04-27 18:55 | 41.63455 | -124.99086 | 27176 ft | 372 kts | 144° |
| 2026-04-27 18:55 | 41.61367 | -124.97042 | 27176 ft | 372 kts | 144° |
| 2026-04-27 18:55 | 41.59277 | -124.94999 | 27176 ft | 372 kts | 144° |
| 2026-04-27 18:55 | 41.57195 | -124.92964 | 27176 ft | 372 kts | 144° |
| 2026-04-27 18:56 | 41.55104 | -124.90923 | 27167 ft | 372 kts | 144° |
| 2026-04-27 18:56 | 41.53011 | -124.88881 | 27168 ft | 372 kts | 145° |
| 2026-04-27 18:56 | 41.50921 | -124.86844 | 27175 ft | 371 kts | 145° |
| 2026-04-27 18:56 | 41.48850 | -124.84827 | 27171 ft | 367 kts | 145° |
| 2026-04-27 18:57 | 41.46786 | -124.82819 | 27172 ft | 368 kts | 145° |
| 2026-04-27 18:57 | 41.44717 | -124.80807 | 27171 ft | 368 kts | 145° |
| 2026-04-27 18:57 | 41.42650 | -124.78799 | 27172 ft | 368 kts | 145° |
| 2026-04-27 18:57 | 41.40580 | -124.76789 | 27147 ft | 368 kts | 144° |
| 2026-04-27 18:58 | 41.38501 | -124.74769 | 27161 ft | 372 kts | 144° |
| 2026-04-27 18:58 | 41.37112 | -124.73425 | 27180 ft | 374 kts | 144° |
| 2026-04-27 18:58 | 41.34304 | -124.70707 | 27172 ft | 372 kts | 145° |
| 2026-04-27 18:58 | 41.32210 | -124.68680 | 27173 ft | 372 kts | 145° |
| 2026-04-27 18:59 | 41.30112 | -124.66653 | 27038 ft | 377 kts | 145° |
| 2026-04-27 18:59 | 41.28015 | -124.64627 | 26750 ft | 361 kts | 145° |
| 2026-04-27 18:59 | 41.25951 | -124.62636 | 26197 ft | 369 kts | 145° |
| 2026-04-27 18:59 | 41.23903 | -124.60661 | 25597 ft | 359 kts | 145° |
| 2026-04-27 19:00 | 41.21893 | -124.58724 | 24996 ft | 355 kts | 145° |
| 2026-04-27 19:00 | 41.19931 | -124.56834 | 24422 ft | 351 kts | 145° |
| 2026-04-27 19:00 | 41.17942 | -124.54921 | 23847 ft | 346 kts | 145° |
| 2026-04-27 19:00 | 41.16030 | -124.53083 | 23147 ft | 342 kts | 145° |
| 2026-04-27 19:01 | 41.14119 | -124.51248 | 22406 ft | 336 kts | 145° |
| 2026-04-27 19:01 | 41.12242 | -124.49447 | 21626 ft | 330 kts | 144° |
| 2026-04-27 19:01 | 41.10399 | -124.47680 | 20868 ft | 326 kts | 144° |
| 2026-04-27 19:01 | 41.08577 | -124.45934 | 20110 ft | 321 kts | 144° |
| 2026-04-27 19:02 | 41.06783 | -124.44216 | 19391 ft | 316 kts | 144° |
| 2026-04-27 19:02 | 41.05008 | -124.42516 | 18686 ft | 313 kts | 144° |
| 2026-04-27 19:02 | 41.03260 | -124.40845 | 17917 ft | 307 kts | 144° |
| 2026-04-27 19:02 | 41.01538 | -124.39200 | 16967 ft | 305 kts | 143° |
| 2026-04-27 19:03 | 40.99839 | -124.37577 | 16183 ft | 298 kts | 143° |
| 2026-04-27 19:03 | 40.98158 | -124.35972 | 15133 ft | 300 kts | 143° |
| 2026-04-27 19:03 | 40.96454 | -124.34346 | 14062 ft | 302 kts | 143° |
| 2026-04-27 19:03 | 40.95334 | -124.33278 | 13461 ft | 298 kts | 143° |
| 2026-04-27 19:04 | 40.93148 | -124.31196 | 12472 ft | 281 kts | 143° |
| 2026-04-27 19:04 | 40.91579 | -124.29702 | 11592 ft | 276 kts | 143° |
| 2026-04-27 19:04 | 40.90019 | -124.28218 | 10610 ft | 276 kts | 143° |
| 2026-04-27 19:04 | 40.88495 | -124.26769 | 9774 ft | 270 kts | 144° |
| 2026-04-27 19:05 | 40.87006 | -124.25354 | 9015 ft | 259 kts | 144° |
| 2026-04-27 19:05 | 40.85558 | -124.23979 | 8095 ft | 256 kts | 143° |
| 2026-04-27 19:05 | 40.84091 | -124.22586 | 6890 ft | 264 kts | 143° |
| 2026-04-27 19:05 | 40.82600 | -124.21170 | 5970 ft | 260 kts | 143° |
| 2026-04-27 19:06 | 40.81180 | -124.19824 | 5282 ft | 245 kts | 143° |
| 2026-04-27 19:06 | 40.79952 | -124.18662 | 5784 ft | 171 kts | 143° |
| 2026-04-27 19:06 | 40.78943 | -124.17712 | 4740 ft | 202 kts | 143° |
| 2026-04-27 19:06 | 40.77770 | -124.16598 | 4179 ft | 201 kts | 142° |
| 2026-04-27 19:07 | 40.76848 | -124.15373 | 4021 ft | 178 kts | 121° |
| 2026-04-27 19:07 | 40.76484 | -124.13796 | 2919 ft | 198 kts | 89° |
| 2026-04-27 19:07 | 40.76871 | -124.11908 | 2169 ft | 210 kts | 68° |
| 2026-04-27 19:07 | 40.77353 | -124.10180 | 1908 ft | 192 kts | 67° |
| 2026-04-27 19:08 | 40.77797 | -124.08569 | 2058 ft | 187 kts | 68° |
| 2026-04-27 19:08 | 40.78236 | -124.06960 | 2234 ft | 185 kts | 69° |
| 2026-04-27 19:08 | 40.78670 | -124.05346 | 2488 ft | 187 kts | 68° |
| 2026-04-27 19:08 | 40.79100 | -124.03732 | 2620 ft | 186 kts | 70° |
| 2026-04-27 19:09 | 40.79760 | -124.02290 | 2865 ft | 188 kts | 39° |
| 2026-04-27 19:09 | 40.80916 | -124.01726 | 2636 ft | 181 kts | 359° |
| 2026-04-27 19:09 | 40.82109 | -124.02091 | 2931 ft | 177 kts | 341° |
| 2026-04-27 19:09 | 40.83304 | -124.02722 | 2656 ft | 178 kts | 338° |
| 2026-04-27 19:10 | 40.84358 | -124.03324 | 2336 ft | 151 kts | 337° |
| 2026-04-27 19:10 | 40.85283 | -124.03855 | 1985 ft | 140 kts | 337° |
| 2026-04-27 19:10 | 40.86151 | -124.04332 | 1712 ft | 132 kts | 336° |
| 2026-04-27 19:10 | 40.86717 | -124.04639 | 1561 ft | 128 kts | 338° |
| 2026-04-27 19:11 | 40.87775 | -124.05210 | 1490 ft | 126 kts | 337° |
| 2026-04-27 19:11 | 40.88571 | -124.05640 | 1364 ft | 124 kts | 337° |
| 2026-04-27 19:11 | 40.89360 | -124.06058 | 1400 ft | 120 kts | 338° |
| 2026-04-27 19:11 | 40.90176 | -124.06286 | 1633 ft | 123 kts | 352° |
| 2026-04-27 19:12 | 40.91016 | -124.06493 | 1794 ft | 126 kts | 342° |
| 2026-04-27 19:12 | 40.91823 | -124.06886 | 1658 ft | 127 kts | 332° |
| 2026-04-27 19:12 | 40.92549 | -124.07332 | 1195 ft | 109 kts | 333° |
| 2026-04-27 19:12 | 40.93320 | -124.07828 | 1042 ft | 120 kts | 333° |
| 2026-04-27 19:13 | 40.94033 | -124.08278 | 857 ft | 109 kts | 332° |
| 2026-04-27 19:13 | 40.94753 | -124.08766 | 741 ft | 117 kts | 330° |
| 2026-04-27 19:13 | 40.95493 | -124.09262 | 630 ft | 122 kts | 332° |
| 2026-04-27 19:13 | 40.96273 | -124.09784 | 472 ft | 128 kts | 332° |
| 2026-04-27 19:14 | 40.97011 | -124.10279 | 258 ft | 98 kts | 329° |
| 2026-04-27 19:14 | 40.97562 | -124.10662 | 217 ft | 68 kts | 333° |
| 2026-04-27 19:14 | 40.97686 | -124.10743 | 214 ft | 7 kts | 334° |
| 2026-04-27 19:14 | 40.97735 | -124.10779 | 211 ft | 5 kts | 294° |
| 2026-04-27 19:15 | 40.97697 | -124.10831 | 214 ft | 12 kts | 212° |
| 2026-04-27 19:15 | 40.97642 | -124.10854 | 214 ft | 10 kts | 178° |
| 2026-04-27 19:15 | 40.97614 | -124.10854 | 213 ft | 0 kts | 179° |
| 2026-04-27 19:16 | 40.97529 | -124.10855 | 208 ft | 9 kts | 181° |
| 2026-04-27 19:16 | 40.97465 | -124.10856 | 211 ft | 10 kts | 181° |
| 2026-04-27 19:17 | 40.97399 | -124.10860 | 213 ft | 8 kts | 193° |
| 2026-04-27 19:17 | 40.97372 | -124.10925 | 204 ft | 9 kts | 261° |
| 2026-04-27 19:17 | 40.97363 | -124.11003 | 199 ft | 8 kts | 261° |
| 2026-04-27 19:17 | 40.97351 | -124.11078 | 196 ft | 10 kts | 259° |
| 2026-04-27 19:18 | 40.97337 | -124.11179 | 194 ft | 9 kts | 268° |
| 2026-04-27 19:18 | 40.97368 | -124.11196 | 196 ft | 6 kts | 18° |
| 2026-04-27 19:18 | 40.97433 | -124.11150 | 204 ft | 15 kts | 29° |
| 2026-04-27 19:18 | 40.97526 | -124.11082 | 204 ft | 12 kts | 32° |
| 2026-04-27 19:19 | 40.97576 | -124.11065 | 207 ft | 4 kts | 308° |
| 2026-04-27 19:19 | 40.97593 | -124.11156 | 204 ft | 2 kts | 281° |
| 2026-04-27 19:19 | 40.97598 | -124.11196 | 201 ft | 7 kts | 279° |
| 2026-04-27 19:19 | 40.97614 | -124.11240 | 214 ft | 4 kts | 328° |
| 2026-04-27 19:20 | 40.97649 | -124.11241 | 206 ft | 6 kts | 14° |
| 2026-04-27 19:20 | 40.97665 | -124.11244 | 207 ft | 1 kts | 290° |
| 2026-04-27 19:20 | 40.97659 | -124.11248 | 212 ft | 7 kts | 183° |
| 2026-04-27 19:20 | 40.97629 | -124.11248 | 207 ft | 5 kts | 190° |
| 2026-04-27 19:21 | 40.97623 | -124.11260 | 205 ft | 2 kts | 297° |
| 2026-04-27 19:21 | 40.97631 | -124.11268 | 214 ft | 1 kts | 343° |
| 2026-04-27 19:21 | 40.97642 | -124.11269 | 206 ft | 4 kts | 11° |
| 2026-04-27 19:21 | 40.97637 | -124.11271 | 214 ft | 1 kts | 11° |
| 2026-04-27 19:22 | 40.97626 | -124.11273 | 205 ft | 0 kts | 9° |